<?xml version="1.0" encoding="UTF-8" standalone="no" ?>
<gpx xmlns="http://www.topografix.com/GPX/1/1" xmlns:xsi="http://www.w3.org/2001/XMLSchema-instance" xsi:schemaLocation="http://www.topografix.com/GPX/1/1 http://www.topografix.com/GPX/1/1/gpx.xsd" version="1.1" creator="VisuGPX - https://www.visugpx.com">
  <metadata>
    <name>Paris Cyclisme</name>
  </metadata>
  <trk>
    <name><![CDATA[Paris Cyclisme_1]]></name>
    <trkseg>
      <trkpt lat="48.86418" lon="2.2411">
        <ele>33.8</ele>
        <time>2023-08-20T01:58:02Z</time>
      </trkpt>
      <trkpt lat="48.86417" lon="2.24109">
        <ele>34.4</ele>
        <time>2023-08-20T01:58:03Z</time>
      </trkpt>
      <trkpt lat="48.86414" lon="2.24103">
        <ele>36.2</ele>
        <time>2023-08-20T01:58:12Z</time>
      </trkpt>
      <trkpt lat="48.86412" lon="2.24095">
        <ele>36</ele>
        <time>2023-08-20T01:58:14Z</time>
      </trkpt>
      <trkpt lat="48.86408" lon="2.24078">
        <ele>35.8</ele>
        <time>2023-08-20T01:58:17Z</time>
      </trkpt>
      <trkpt lat="48.86403" lon="2.24066">
        <ele>35.6</ele>
        <time>2023-08-20T01:58:19Z</time>
      </trkpt>
      <trkpt lat="48.86385" lon="2.24004">
        <ele>34.6</ele>
        <time>2023-08-20T01:58:28Z</time>
      </trkpt>
      <trkpt lat="48.86384" lon="2.23991">
        <ele>34.4</ele>
        <time>2023-08-20T01:58:30Z</time>
      </trkpt>
      <trkpt lat="48.86386" lon="2.23985">
        <ele>34.2</ele>
        <time>2023-08-20T01:58:31Z</time>
      </trkpt>
      <trkpt lat="48.86389" lon="2.23981">
        <ele>34</ele>
        <time>2023-08-20T01:58:32Z</time>
      </trkpt>
      <trkpt lat="48.86396" lon="2.23979">
        <ele>33.6</ele>
        <time>2023-08-20T01:58:34Z</time>
      </trkpt>
      <trkpt lat="48.86413" lon="2.23989">
        <ele>34.6</ele>
        <time>2023-08-20T01:58:39Z</time>
      </trkpt>
      <trkpt lat="48.86431" lon="2.24002">
        <ele>34.4</ele>
        <time>2023-08-20T01:58:44Z</time>
      </trkpt>
      <trkpt lat="48.86443" lon="2.24013">
        <ele>34.2</ele>
        <time>2023-08-20T01:58:48Z</time>
      </trkpt>
      <trkpt lat="48.86451" lon="2.24017">
        <ele>33.8</ele>
        <time>2023-08-20T01:58:53Z</time>
      </trkpt>
      <trkpt lat="48.86452" lon="2.24017">
        <ele>33.8</ele>
        <time>2023-08-20T01:58:54Z</time>
      </trkpt>
      <trkpt lat="48.86454" lon="2.2401">
        <ele>30</ele>
        <time>2023-08-20T02:00:23Z</time>
      </trkpt>
      <trkpt lat="48.86453" lon="2.24005">
        <ele>30.2</ele>
        <time>2023-08-20T02:00:25Z</time>
      </trkpt>
      <trkpt lat="48.86445" lon="2.23998">
        <ele>29.8</ele>
        <time>2023-08-20T02:00:30Z</time>
      </trkpt>
      <trkpt lat="48.86426" lon="2.23986">
        <ele>29.8</ele>
        <time>2023-08-20T02:00:37Z</time>
      </trkpt>
      <trkpt lat="48.86407" lon="2.23971">
        <ele>29.8</ele>
        <time>2023-08-20T02:00:43Z</time>
      </trkpt>
      <trkpt lat="48.86378" lon="2.23949">
        <ele>30.2</ele>
        <time>2023-08-20T02:00:51Z</time>
      </trkpt>
      <trkpt lat="48.86366" lon="2.23927">
        <ele>29.8</ele>
        <time>2023-08-20T02:00:56Z</time>
      </trkpt>
      <trkpt lat="48.86367" lon="2.23917">
        <ele>29.8</ele>
        <time>2023-08-20T02:00:58Z</time>
      </trkpt>
      <trkpt lat="48.86368" lon="2.23914">
        <ele>29.8</ele>
        <time>2023-08-20T02:00:59Z</time>
      </trkpt>
      <trkpt lat="48.86367" lon="2.23884">
        <ele>29.4</ele>
        <time>2023-08-20T02:01:05Z</time>
      </trkpt>
      <trkpt lat="48.86371" lon="2.23837">
        <ele>29.8</ele>
        <time>2023-08-20T02:01:12Z</time>
      </trkpt>
      <trkpt lat="48.8638" lon="2.23789">
        <ele>29.8</ele>
        <time>2023-08-20T02:01:19Z</time>
      </trkpt>
      <trkpt lat="48.86381" lon="2.23782">
        <ele>29.8</ele>
        <time>2023-08-20T02:01:20Z</time>
      </trkpt>
      <trkpt lat="48.86382" lon="2.23776">
        <ele>29.8</ele>
        <time>2023-08-20T02:01:21Z</time>
      </trkpt>
      <trkpt lat="48.8639" lon="2.23741">
        <ele>29.6</ele>
        <time>2023-08-20T02:01:27Z</time>
      </trkpt>
      <trkpt lat="48.86411" lon="2.23677">
        <ele>29.6</ele>
        <time>2023-08-20T02:01:36Z</time>
      </trkpt>
      <trkpt lat="48.86426" lon="2.23649">
        <ele>29.6</ele>
        <time>2023-08-20T02:01:41Z</time>
      </trkpt>
      <trkpt lat="48.86438" lon="2.23624">
        <ele>29.4</ele>
        <time>2023-08-20T02:01:46Z</time>
      </trkpt>
      <trkpt lat="48.86453" lon="2.23593">
        <ele>29.6</ele>
        <time>2023-08-20T02:01:52Z</time>
      </trkpt>
      <trkpt lat="48.8647" lon="2.23554">
        <ele>29.6</ele>
        <time>2023-08-20T02:01:59Z</time>
      </trkpt>
      <trkpt lat="48.86494" lon="2.23509">
        <ele>29.8</ele>
        <time>2023-08-20T02:02:08Z</time>
      </trkpt>
      <trkpt lat="48.86508" lon="2.23494">
        <ele>29.8</ele>
        <time>2023-08-20T02:02:13Z</time>
      </trkpt>
      <trkpt lat="48.86518" lon="2.23475">
        <ele>29.6</ele>
        <time>2023-08-20T02:02:18Z</time>
      </trkpt>
      <trkpt lat="48.86528" lon="2.2345">
        <ele>29.4</ele>
        <time>2023-08-20T02:02:23Z</time>
      </trkpt>
      <trkpt lat="48.8654" lon="2.2343">
        <ele>29.2</ele>
        <time>2023-08-20T02:02:28Z</time>
      </trkpt>
      <trkpt lat="48.86562" lon="2.23382">
        <ele>29</ele>
        <time>2023-08-20T02:02:36Z</time>
      </trkpt>
      <trkpt lat="48.86586" lon="2.23332">
        <ele>29</ele>
        <time>2023-08-20T02:02:45Z</time>
      </trkpt>
      <trkpt lat="48.86611" lon="2.23275">
        <ele>29.2</ele>
        <time>2023-08-20T02:02:55Z</time>
      </trkpt>
      <trkpt lat="48.86628" lon="2.23227">
        <ele>29.4</ele>
        <time>2023-08-20T02:03:03Z</time>
      </trkpt>
      <trkpt lat="48.86644" lon="2.23172">
        <ele>29.8</ele>
        <time>2023-08-20T02:03:12Z</time>
      </trkpt>
      <trkpt lat="48.8666" lon="2.23114">
        <ele>30.4</ele>
        <time>2023-08-20T02:03:22Z</time>
      </trkpt>
      <trkpt lat="48.86676" lon="2.2305">
        <ele>31.2</ele>
        <time>2023-08-20T02:03:33Z</time>
      </trkpt>
      <trkpt lat="48.86685" lon="2.23011">
        <ele>31.6</ele>
        <time>2023-08-20T02:03:40Z</time>
      </trkpt>
      <trkpt lat="48.86697" lon="2.22972">
        <ele>32</ele>
        <time>2023-08-20T02:03:48Z</time>
      </trkpt>
      <trkpt lat="48.86707" lon="2.22931">
        <ele>32.8</ele>
        <time>2023-08-20T02:03:56Z</time>
      </trkpt>
      <trkpt lat="48.86715" lon="2.22904">
        <ele>33</ele>
        <time>2023-08-20T02:04:02Z</time>
      </trkpt>
      <trkpt lat="48.86727" lon="2.22856">
        <ele>33.6</ele>
        <time>2023-08-20T02:04:11Z</time>
      </trkpt>
      <trkpt lat="48.86737" lon="2.22814">
        <ele>33.8</ele>
        <time>2023-08-20T02:04:19Z</time>
      </trkpt>
      <trkpt lat="48.86746" lon="2.22789">
        <ele>33.8</ele>
        <time>2023-08-20T02:04:24Z</time>
      </trkpt>
      <trkpt lat="48.86753" lon="2.22762">
        <ele>33.8</ele>
        <time>2023-08-20T02:04:30Z</time>
      </trkpt>
      <trkpt lat="48.86758" lon="2.22731">
        <ele>34</ele>
        <time>2023-08-20T02:04:35Z</time>
      </trkpt>
      <trkpt lat="48.86773" lon="2.22676">
        <ele>33.6</ele>
        <time>2023-08-20T02:04:43Z</time>
      </trkpt>
      <trkpt lat="48.86778" lon="2.22659">
        <ele>33.2</ele>
        <time>2023-08-20T02:04:47Z</time>
      </trkpt>
      <trkpt lat="48.86779" lon="2.22657">
        <ele>33.2</ele>
        <time>2023-08-20T02:04:50Z</time>
      </trkpt>
      <trkpt lat="48.8678" lon="2.22652">
        <ele>32.6</ele>
        <time>2023-08-20T02:05:22Z</time>
      </trkpt>
      <trkpt lat="48.86784" lon="2.22634">
        <ele>33</ele>
        <time>2023-08-20T02:05:27Z</time>
      </trkpt>
      <trkpt lat="48.86789" lon="2.22609">
        <ele>33.2</ele>
        <time>2023-08-20T02:05:33Z</time>
      </trkpt>
      <trkpt lat="48.86788" lon="2.22604">
        <ele>33.2</ele>
        <time>2023-08-20T02:05:35Z</time>
      </trkpt>
      <trkpt lat="48.86785" lon="2.22603">
        <ele>33</ele>
        <time>2023-08-20T02:05:38Z</time>
      </trkpt>
      <trkpt lat="48.86765" lon="2.22605">
        <ele>33.2</ele>
        <time>2023-08-20T02:05:43Z</time>
      </trkpt>
      <trkpt lat="48.86759" lon="2.22594">
        <ele>32.6</ele>
        <time>2023-08-20T02:05:47Z</time>
      </trkpt>
      <trkpt lat="48.86745" lon="2.2258">
        <ele>32.4</ele>
        <time>2023-08-20T02:05:53Z</time>
      </trkpt>
      <trkpt lat="48.86733" lon="2.22568">
        <ele>32</ele>
        <time>2023-08-20T02:06:00Z</time>
      </trkpt>
      <trkpt lat="48.86712" lon="2.22561">
        <ele>31.4</ele>
        <time>2023-08-20T02:06:05Z</time>
      </trkpt>
      <trkpt lat="48.86704" lon="2.22552">
        <ele>31.4</ele>
        <time>2023-08-20T02:06:10Z</time>
      </trkpt>
      <trkpt lat="48.86702" lon="2.22549">
        <ele>31.4</ele>
        <time>2023-08-20T02:06:11Z</time>
      </trkpt>
      <trkpt lat="48.86699" lon="2.22533">
        <ele>31.2</ele>
        <time>2023-08-20T02:06:15Z</time>
      </trkpt>
      <trkpt lat="48.86695" lon="2.22524">
        <ele>30.6</ele>
        <time>2023-08-20T02:06:19Z</time>
      </trkpt>
      <trkpt lat="48.86693" lon="2.22523">
        <ele>30.6</ele>
        <time>2023-08-20T02:06:20Z</time>
      </trkpt>
      <trkpt lat="48.86691" lon="2.22521">
        <ele>30</ele>
        <time>2023-08-20T02:06:22Z</time>
      </trkpt>
      <trkpt lat="48.86689" lon="2.2251">
        <ele>29.4</ele>
        <time>2023-08-20T02:06:25Z</time>
      </trkpt>
      <trkpt lat="48.86681" lon="2.22492">
        <ele>29.2</ele>
        <time>2023-08-20T02:06:29Z</time>
      </trkpt>
      <trkpt lat="48.86676" lon="2.22488">
        <ele>29.2</ele>
        <time>2023-08-20T02:06:30Z</time>
      </trkpt>
      <trkpt lat="48.86663" lon="2.2248">
        <ele>29</ele>
        <time>2023-08-20T02:06:32Z</time>
      </trkpt>
      <trkpt lat="48.86657" lon="2.22476">
        <ele>28.8</ele>
        <time>2023-08-20T02:06:33Z</time>
      </trkpt>
      <trkpt lat="48.86642" lon="2.22462">
        <ele>28.6</ele>
        <time>2023-08-20T02:06:37Z</time>
      </trkpt>
      <trkpt lat="48.86632" lon="2.22442">
        <ele>28.2</ele>
        <time>2023-08-20T02:06:42Z</time>
      </trkpt>
      <trkpt lat="48.86627" lon="2.22415">
        <ele>28.2</ele>
        <time>2023-08-20T02:06:47Z</time>
      </trkpt>
      <trkpt lat="48.86621" lon="2.22406">
        <ele>28</ele>
        <time>2023-08-20T02:06:49Z</time>
      </trkpt>
      <trkpt lat="48.86618" lon="2.22402">
        <ele>27.8</ele>
        <time>2023-08-20T02:06:50Z</time>
      </trkpt>
      <trkpt lat="48.86615" lon="2.22397">
        <ele>27.8</ele>
        <time>2023-08-20T02:06:51Z</time>
      </trkpt>
      <trkpt lat="48.8661" lon="2.22386">
        <ele>27.6</ele>
        <time>2023-08-20T02:06:53Z</time>
      </trkpt>
      <trkpt lat="48.86604" lon="2.22376">
        <ele>27.4</ele>
        <time>2023-08-20T02:06:55Z</time>
      </trkpt>
      <trkpt lat="48.86599" lon="2.2237">
        <ele>27.4</ele>
        <time>2023-08-20T02:06:56Z</time>
      </trkpt>
      <trkpt lat="48.86592" lon="2.22355">
        <ele>27</ele>
        <time>2023-08-20T02:06:59Z</time>
      </trkpt>
      <trkpt lat="48.8659" lon="2.2235">
        <ele>26.8</ele>
        <time>2023-08-20T02:07:00Z</time>
      </trkpt>
      <trkpt lat="48.86587" lon="2.22341">
        <ele>26.4</ele>
        <time>2023-08-20T02:07:02Z</time>
      </trkpt>
      <trkpt lat="48.86579" lon="2.2231">
        <ele>25.6</ele>
        <time>2023-08-20T02:07:08Z</time>
      </trkpt>
      <trkpt lat="48.86566" lon="2.22279">
        <ele>24.8</ele>
        <time>2023-08-20T02:07:14Z</time>
      </trkpt>
      <trkpt lat="48.86553" lon="2.22252">
        <ele>24.2</ele>
        <time>2023-08-20T02:07:19Z</time>
      </trkpt>
      <trkpt lat="48.86549" lon="2.22247">
        <ele>24.2</ele>
        <time>2023-08-20T02:07:20Z</time>
      </trkpt>
      <trkpt lat="48.86536" lon="2.22222">
        <ele>24.2</ele>
        <time>2023-08-20T02:07:25Z</time>
      </trkpt>
      <trkpt lat="48.86521" lon="2.22196">
        <ele>24.4</ele>
        <time>2023-08-20T02:07:30Z</time>
      </trkpt>
      <trkpt lat="48.86509" lon="2.22169">
        <ele>24.2</ele>
        <time>2023-08-20T02:07:35Z</time>
      </trkpt>
      <trkpt lat="48.86507" lon="2.22163">
        <ele>24.4</ele>
        <time>2023-08-20T02:07:36Z</time>
      </trkpt>
      <trkpt lat="48.86497" lon="2.22145">
        <ele>25.6</ele>
        <time>2023-08-20T02:07:39Z</time>
      </trkpt>
      <trkpt lat="48.86483" lon="2.22121">
        <ele>25.4</ele>
        <time>2023-08-20T02:07:44Z</time>
      </trkpt>
      <trkpt lat="48.86477" lon="2.22103">
        <ele>25.4</ele>
        <time>2023-08-20T02:07:48Z</time>
      </trkpt>
      <trkpt lat="48.86474" lon="2.22098">
        <ele>25.6</ele>
        <time>2023-08-20T02:07:49Z</time>
      </trkpt>
      <trkpt lat="48.86469" lon="2.22087">
        <ele>25.8</ele>
        <time>2023-08-20T02:07:51Z</time>
      </trkpt>
      <trkpt lat="48.86454" lon="2.22059">
        <ele>26.4</ele>
        <time>2023-08-20T02:07:56Z</time>
      </trkpt>
      <trkpt lat="48.86446" lon="2.22043">
        <ele>26.6</ele>
        <time>2023-08-20T02:08:00Z</time>
      </trkpt>
      <trkpt lat="48.86444" lon="2.22039">
        <ele>26.8</ele>
        <time>2023-08-20T02:08:01Z</time>
      </trkpt>
      <trkpt lat="48.86439" lon="2.22029">
        <ele>27</ele>
        <time>2023-08-20T02:08:04Z</time>
      </trkpt>
      <trkpt lat="48.86425" lon="2.22005">
        <ele>27.8</ele>
        <time>2023-08-20T02:08:09Z</time>
      </trkpt>
      <trkpt lat="48.86411" lon="2.21977">
        <ele>28.6</ele>
        <time>2023-08-20T02:08:15Z</time>
      </trkpt>
      <trkpt lat="48.86404" lon="2.21958">
        <ele>29.2</ele>
        <time>2023-08-20T02:08:20Z</time>
      </trkpt>
      <trkpt lat="48.86402" lon="2.21946">
        <ele>29.8</ele>
        <time>2023-08-20T02:08:24Z</time>
      </trkpt>
      <trkpt lat="48.86401" lon="2.21943">
        <ele>29.8</ele>
        <time>2023-08-20T02:08:25Z</time>
      </trkpt>
      <trkpt lat="48.86387" lon="2.21917">
        <ele>31</ele>
        <time>2023-08-20T02:08:32Z</time>
      </trkpt>
      <trkpt lat="48.86385" lon="2.21914">
        <ele>31.2</ele>
        <time>2023-08-20T02:08:33Z</time>
      </trkpt>
      <trkpt lat="48.8638" lon="2.2191">
        <ele>31.4</ele>
        <time>2023-08-20T02:08:35Z</time>
      </trkpt>
      <trkpt lat="48.8637" lon="2.21904">
        <ele>32.2</ele>
        <time>2023-08-20T02:08:40Z</time>
      </trkpt>
      <trkpt lat="48.86358" lon="2.21896">
        <ele>32.8</ele>
        <time>2023-08-20T02:08:46Z</time>
      </trkpt>
      <trkpt lat="48.86346" lon="2.21888">
        <ele>33.6</ele>
        <time>2023-08-20T02:08:50Z</time>
      </trkpt>
      <trkpt lat="48.86325" lon="2.21877">
        <ele>35.2</ele>
        <time>2023-08-20T02:08:56Z</time>
      </trkpt>
      <trkpt lat="48.8631" lon="2.21868">
        <ele>36.2</ele>
        <time>2023-08-20T02:09:02Z</time>
      </trkpt>
      <trkpt lat="48.86302" lon="2.21857">
        <ele>36.8</ele>
        <time>2023-08-20T02:09:07Z</time>
      </trkpt>
      <trkpt lat="48.86297" lon="2.2185">
        <ele>37</ele>
        <time>2023-08-20T02:09:10Z</time>
      </trkpt>
      <trkpt lat="48.86295" lon="2.21841">
        <ele>37.2</ele>
        <time>2023-08-20T02:09:13Z</time>
      </trkpt>
      <trkpt lat="48.86283" lon="2.21819">
        <ele>38</ele>
        <time>2023-08-20T02:09:20Z</time>
      </trkpt>
      <trkpt lat="48.86274" lon="2.21792">
        <ele>39.4</ele>
        <time>2023-08-20T02:09:26Z</time>
      </trkpt>
      <trkpt lat="48.86276" lon="2.21771">
        <ele>40.6</ele>
        <time>2023-08-20T02:09:30Z</time>
      </trkpt>
      <trkpt lat="48.86272" lon="2.21747">
        <ele>41.4</ele>
        <time>2023-08-20T02:09:36Z</time>
      </trkpt>
      <trkpt lat="48.86273" lon="2.2172">
        <ele>42.2</ele>
        <time>2023-08-20T02:09:43Z</time>
      </trkpt>
      <trkpt lat="48.86271" lon="2.21715">
        <ele>42.4</ele>
        <time>2023-08-20T02:09:45Z</time>
      </trkpt>
      <trkpt lat="48.86271" lon="2.2171">
        <ele>42.8</ele>
        <time>2023-08-20T02:09:47Z</time>
      </trkpt>
      <trkpt lat="48.86272" lon="2.21699">
        <ele>43.4</ele>
        <time>2023-08-20T02:09:51Z</time>
      </trkpt>
      <trkpt lat="48.86271" lon="2.21692">
        <ele>43.8</ele>
        <time>2023-08-20T02:09:53Z</time>
      </trkpt>
      <trkpt lat="48.8627" lon="2.21675">
        <ele>45</ele>
        <time>2023-08-20T02:09:58Z</time>
      </trkpt>
      <trkpt lat="48.86269" lon="2.21659">
        <ele>45.8</ele>
        <time>2023-08-20T02:10:03Z</time>
      </trkpt>
      <trkpt lat="48.86266" lon="2.21638">
        <ele>47</ele>
        <time>2023-08-20T02:10:09Z</time>
      </trkpt>
      <trkpt lat="48.86267" lon="2.21619">
        <ele>48</ele>
        <time>2023-08-20T02:10:14Z</time>
      </trkpt>
      <trkpt lat="48.86265" lon="2.216">
        <ele>49</ele>
        <time>2023-08-20T02:10:19Z</time>
      </trkpt>
      <trkpt lat="48.86264" lon="2.21578">
        <ele>50.4</ele>
        <time>2023-08-20T02:10:25Z</time>
      </trkpt>
      <trkpt lat="48.86262" lon="2.21561">
        <ele>51.4</ele>
        <time>2023-08-20T02:10:29Z</time>
      </trkpt>
      <trkpt lat="48.86262" lon="2.21552">
        <ele>51.8</ele>
        <time>2023-08-20T02:10:31Z</time>
      </trkpt>
      <trkpt lat="48.86258" lon="2.2153">
        <ele>53</ele>
        <time>2023-08-20T02:10:36Z</time>
      </trkpt>
      <trkpt lat="48.86255" lon="2.21504">
        <ele>54.6</ele>
        <time>2023-08-20T02:10:42Z</time>
      </trkpt>
      <trkpt lat="48.8625" lon="2.21481">
        <ele>56.2</ele>
        <time>2023-08-20T02:10:47Z</time>
      </trkpt>
      <trkpt lat="48.86245" lon="2.21455">
        <ele>57.8</ele>
        <time>2023-08-20T02:10:53Z</time>
      </trkpt>
      <trkpt lat="48.8624" lon="2.21439">
        <ele>59</ele>
        <time>2023-08-20T02:10:57Z</time>
      </trkpt>
      <trkpt lat="48.86224" lon="2.21407">
        <ele>61</ele>
        <time>2023-08-20T02:11:04Z</time>
      </trkpt>
      <trkpt lat="48.86211" lon="2.21375">
        <ele>62.8</ele>
        <time>2023-08-20T02:11:11Z</time>
      </trkpt>
      <trkpt lat="48.86205" lon="2.21358">
        <ele>63.8</ele>
        <time>2023-08-20T02:11:15Z</time>
      </trkpt>
      <trkpt lat="48.86197" lon="2.21336">
        <ele>65.2</ele>
        <time>2023-08-20T02:11:20Z</time>
      </trkpt>
      <trkpt lat="48.86188" lon="2.21312">
        <ele>67.2</ele>
        <time>2023-08-20T02:11:26Z</time>
      </trkpt>
      <trkpt lat="48.86186" lon="2.21307">
        <ele>67.8</ele>
        <time>2023-08-20T02:11:28Z</time>
      </trkpt>
      <trkpt lat="48.86184" lon="2.21301">
        <ele>68.6</ele>
        <time>2023-08-20T02:11:30Z</time>
      </trkpt>
      <trkpt lat="48.86185" lon="2.21299">
        <ele>69</ele>
        <time>2023-08-20T02:11:31Z</time>
      </trkpt>
      <trkpt lat="48.86185" lon="2.21296">
        <ele>72.6</ele>
        <time>2023-08-20T02:11:47Z</time>
      </trkpt>
      <trkpt lat="48.86184" lon="2.21293">
        <ele>73.2</ele>
        <time>2023-08-20T02:11:49Z</time>
      </trkpt>
      <trkpt lat="48.86182" lon="2.2128">
        <ele>74.2</ele>
        <time>2023-08-20T02:11:54Z</time>
      </trkpt>
      <trkpt lat="48.86186" lon="2.21272">
        <ele>74.6</ele>
        <time>2023-08-20T02:11:58Z</time>
      </trkpt>
      <trkpt lat="48.86188" lon="2.21269">
        <ele>74.8</ele>
        <time>2023-08-20T02:11:59Z</time>
      </trkpt>
      <trkpt lat="48.86196" lon="2.21252">
        <ele>75.4</ele>
        <time>2023-08-20T02:12:05Z</time>
      </trkpt>
      <trkpt lat="48.86189" lon="2.2123">
        <ele>76.2</ele>
        <time>2023-08-20T02:12:12Z</time>
      </trkpt>
      <trkpt lat="48.86188" lon="2.21222">
        <ele>76.6</ele>
        <time>2023-08-20T02:12:14Z</time>
      </trkpt>
      <trkpt lat="48.86188" lon="2.21215">
        <ele>76.8</ele>
        <time>2023-08-20T02:12:16Z</time>
      </trkpt>
      <trkpt lat="48.86185" lon="2.21205">
        <ele>77.4</ele>
        <time>2023-08-20T02:12:20Z</time>
      </trkpt>
      <trkpt lat="48.86184" lon="2.21204">
        <ele>78.8</ele>
        <time>2023-08-20T02:12:32Z</time>
      </trkpt>
      <trkpt lat="48.86173" lon="2.21214">
        <ele>79.2</ele>
        <time>2023-08-20T02:12:37Z</time>
      </trkpt>
      <trkpt lat="48.86172" lon="2.21216">
        <ele>79.2</ele>
        <time>2023-08-20T02:12:38Z</time>
      </trkpt>
      <trkpt lat="48.86171" lon="2.21222">
        <ele>79.4</ele>
        <time>2023-08-20T02:12:40Z</time>
      </trkpt>
      <trkpt lat="48.86169" lon="2.21225">
        <ele>79.4</ele>
        <time>2023-08-20T02:12:41Z</time>
      </trkpt>
      <trkpt lat="48.86164" lon="2.21223">
        <ele>79.6</ele>
        <time>2023-08-20T02:12:43Z</time>
      </trkpt>
      <trkpt lat="48.86164" lon="2.2122">
        <ele>79.6</ele>
        <time>2023-08-20T02:12:44Z</time>
      </trkpt>
      <trkpt lat="48.86163" lon="2.21218">
        <ele>79.6</ele>
        <time>2023-08-20T02:12:46Z</time>
      </trkpt>
      <trkpt lat="48.86161" lon="2.21219">
        <ele>79.6</ele>
        <time>2023-08-20T02:12:49Z</time>
      </trkpt>
      <trkpt lat="48.86156" lon="2.2122">
        <ele>79.4</ele>
        <time>2023-08-20T02:12:53Z</time>
      </trkpt>
      <trkpt lat="48.86155" lon="2.21217">
        <ele>79.4</ele>
        <time>2023-08-20T02:12:55Z</time>
      </trkpt>
      <trkpt lat="48.86151" lon="2.21203">
        <ele>79.6</ele>
        <time>2023-08-20T02:12:57Z</time>
      </trkpt>
      <trkpt lat="48.86144" lon="2.21167">
        <ele>80.2</ele>
        <time>2023-08-20T02:13:03Z</time>
      </trkpt>
      <trkpt lat="48.86134" lon="2.21137">
        <ele>80.6</ele>
        <time>2023-08-20T02:13:09Z</time>
      </trkpt>
      <trkpt lat="48.86132" lon="2.21117">
        <ele>80.6</ele>
        <time>2023-08-20T02:13:14Z</time>
      </trkpt>
      <trkpt lat="48.8612" lon="2.21084">
        <ele>81.4</ele>
        <time>2023-08-20T02:13:21Z</time>
      </trkpt>
      <trkpt lat="48.86111" lon="2.21056">
        <ele>82.2</ele>
        <time>2023-08-20T02:13:28Z</time>
      </trkpt>
      <trkpt lat="48.86109" lon="2.21025">
        <ele>82.4</ele>
        <time>2023-08-20T02:13:35Z</time>
      </trkpt>
      <trkpt lat="48.86107" lon="2.20998">
        <ele>82.6</ele>
        <time>2023-08-20T02:13:41Z</time>
      </trkpt>
      <trkpt lat="48.861" lon="2.20981">
        <ele>83.2</ele>
        <time>2023-08-20T02:13:45Z</time>
      </trkpt>
      <trkpt lat="48.86091" lon="2.20949">
        <ele>83.4</ele>
        <time>2023-08-20T02:13:51Z</time>
      </trkpt>
      <trkpt lat="48.86086" lon="2.2092">
        <ele>83.4</ele>
        <time>2023-08-20T02:13:56Z</time>
      </trkpt>
      <trkpt lat="48.86083" lon="2.20867">
        <ele>83.4</ele>
        <time>2023-08-20T02:14:05Z</time>
      </trkpt>
      <trkpt lat="48.8608" lon="2.20855">
        <ele>83</ele>
        <time>2023-08-20T02:14:07Z</time>
      </trkpt>
      <trkpt lat="48.86072" lon="2.20837">
        <ele>82.6</ele>
        <time>2023-08-20T02:14:10Z</time>
      </trkpt>
      <trkpt lat="48.86064" lon="2.20811">
        <ele>82.8</ele>
        <time>2023-08-20T02:14:14Z</time>
      </trkpt>
      <trkpt lat="48.86062" lon="2.20797">
        <ele>82.8</ele>
        <time>2023-08-20T02:14:16Z</time>
      </trkpt>
      <trkpt lat="48.8606" lon="2.2077">
        <ele>82.8</ele>
        <time>2023-08-20T02:14:20Z</time>
      </trkpt>
      <trkpt lat="48.86062" lon="2.20751">
        <ele>82.6</ele>
        <time>2023-08-20T02:14:23Z</time>
      </trkpt>
      <trkpt lat="48.86059" lon="2.20724">
        <ele>82.4</ele>
        <time>2023-08-20T02:14:27Z</time>
      </trkpt>
      <trkpt lat="48.86058" lon="2.20717">
        <ele>82.4</ele>
        <time>2023-08-20T02:14:28Z</time>
      </trkpt>
      <trkpt lat="48.86057" lon="2.20703">
        <ele>82.4</ele>
        <time>2023-08-20T02:14:30Z</time>
      </trkpt>
      <trkpt lat="48.86054" lon="2.20689">
        <ele>82.4</ele>
        <time>2023-08-20T02:14:32Z</time>
      </trkpt>
      <trkpt lat="48.86051" lon="2.20676">
        <ele>82.4</ele>
        <time>2023-08-20T02:14:34Z</time>
      </trkpt>
      <trkpt lat="48.86044" lon="2.20637">
        <ele>82</ele>
        <time>2023-08-20T02:14:40Z</time>
      </trkpt>
      <trkpt lat="48.86038" lon="2.20609">
        <ele>82</ele>
        <time>2023-08-20T02:14:45Z</time>
      </trkpt>
      <trkpt lat="48.86037" lon="2.20596">
        <ele>82.2</ele>
        <time>2023-08-20T02:14:47Z</time>
      </trkpt>
      <trkpt lat="48.86036" lon="2.20577">
        <ele>82</ele>
        <time>2023-08-20T02:14:50Z</time>
      </trkpt>
      <trkpt lat="48.86036" lon="2.20557">
        <ele>82</ele>
        <time>2023-08-20T02:14:53Z</time>
      </trkpt>
      <trkpt lat="48.86038" lon="2.2053">
        <ele>81.8</ele>
        <time>2023-08-20T02:14:57Z</time>
      </trkpt>
      <trkpt lat="48.86047" lon="2.20479">
        <ele>81.8</ele>
        <time>2023-08-20T02:15:04Z</time>
      </trkpt>
      <trkpt lat="48.8606" lon="2.20412">
        <ele>82.4</ele>
        <time>2023-08-20T02:15:13Z</time>
      </trkpt>
      <trkpt lat="48.8607" lon="2.20357">
        <ele>82.6</ele>
        <time>2023-08-20T02:15:21Z</time>
      </trkpt>
      <trkpt lat="48.86072" lon="2.20344">
        <ele>82.8</ele>
        <time>2023-08-20T02:15:23Z</time>
      </trkpt>
      <trkpt lat="48.86076" lon="2.20324">
        <ele>83</ele>
        <time>2023-08-20T02:15:26Z</time>
      </trkpt>
      <trkpt lat="48.8609" lon="2.20254">
        <ele>83.6</ele>
        <time>2023-08-20T02:15:35Z</time>
      </trkpt>
      <trkpt lat="48.86108" lon="2.2017">
        <ele>84.4</ele>
        <time>2023-08-20T02:15:45Z</time>
      </trkpt>
      <trkpt lat="48.86123" lon="2.20095">
        <ele>85</ele>
        <time>2023-08-20T02:15:53Z</time>
      </trkpt>
      <trkpt lat="48.86136" lon="2.20028">
        <ele>85.6</ele>
        <time>2023-08-20T02:16:00Z</time>
      </trkpt>
      <trkpt lat="48.8615" lon="2.19953">
        <ele>86.4</ele>
        <time>2023-08-20T02:16:08Z</time>
      </trkpt>
      <trkpt lat="48.86165" lon="2.1988">
        <ele>87.2</ele>
        <time>2023-08-20T02:16:16Z</time>
      </trkpt>
      <trkpt lat="48.86175" lon="2.19834">
        <ele>87.6</ele>
        <time>2023-08-20T02:16:21Z</time>
      </trkpt>
      <trkpt lat="48.86178" lon="2.19817">
        <ele>87.8</ele>
        <time>2023-08-20T02:16:23Z</time>
      </trkpt>
      <trkpt lat="48.8619" lon="2.19751">
        <ele>88.4</ele>
        <time>2023-08-20T02:16:30Z</time>
      </trkpt>
      <trkpt lat="48.86204" lon="2.19685">
        <ele>88.8</ele>
        <time>2023-08-20T02:16:37Z</time>
      </trkpt>
      <trkpt lat="48.8621" lon="2.19636">
        <ele>89.2</ele>
        <time>2023-08-20T02:16:43Z</time>
      </trkpt>
      <trkpt lat="48.86211" lon="2.19622">
        <ele>89.4</ele>
        <time>2023-08-20T02:16:46Z</time>
      </trkpt>
      <trkpt lat="48.86211" lon="2.1962">
        <ele>89.4</ele>
        <time>2023-08-20T02:16:47Z</time>
      </trkpt>
      <trkpt lat="48.86208" lon="2.19617">
        <ele>89.6</ele>
        <time>2023-08-20T02:16:49Z</time>
      </trkpt>
      <trkpt lat="48.86202" lon="2.19614">
        <ele>89.6</ele>
        <time>2023-08-20T02:16:51Z</time>
      </trkpt>
      <trkpt lat="48.86179" lon="2.19602">
        <ele>89.4</ele>
        <time>2023-08-20T02:16:57Z</time>
      </trkpt>
      <trkpt lat="48.86156" lon="2.19588">
        <ele>88.8</ele>
        <time>2023-08-20T02:17:02Z</time>
      </trkpt>
      <trkpt lat="48.86148" lon="2.19583">
        <ele>88.8</ele>
        <time>2023-08-20T02:17:04Z</time>
      </trkpt>
      <trkpt lat="48.86131" lon="2.19571">
        <ele>88</ele>
        <time>2023-08-20T02:17:09Z</time>
      </trkpt>
      <trkpt lat="48.86128" lon="2.19567">
        <ele>87.8</ele>
        <time>2023-08-20T02:17:11Z</time>
      </trkpt>
      <trkpt lat="48.86125" lon="2.1956">
        <ele>87.6</ele>
        <time>2023-08-20T02:17:13Z</time>
      </trkpt>
      <trkpt lat="48.86125" lon="2.19556">
        <ele>87.6</ele>
        <time>2023-08-20T02:17:14Z</time>
      </trkpt>
      <trkpt lat="48.86128" lon="2.19548">
        <ele>87.2</ele>
        <time>2023-08-20T02:17:16Z</time>
      </trkpt>
      <trkpt lat="48.86134" lon="2.19524">
        <ele>86.4</ele>
        <time>2023-08-20T02:17:21Z</time>
      </trkpt>
      <trkpt lat="48.8614" lon="2.19504">
        <ele>85.6</ele>
        <time>2023-08-20T02:17:25Z</time>
      </trkpt>
      <trkpt lat="48.86142" lon="2.19499">
        <ele>85.6</ele>
        <time>2023-08-20T02:17:26Z</time>
      </trkpt>
      <trkpt lat="48.86144" lon="2.19485">
        <ele>85</ele>
        <time>2023-08-20T02:17:29Z</time>
      </trkpt>
      <trkpt lat="48.86146" lon="2.19477">
        <ele>84</ele>
        <time>2023-08-20T02:17:33Z</time>
      </trkpt>
      <trkpt lat="48.86147" lon="2.19479">
        <ele>84</ele>
        <time>2023-08-20T02:17:34Z</time>
      </trkpt>
      <trkpt lat="48.86145" lon="2.19483">
        <ele>83.6</ele>
        <time>2023-08-20T02:17:36Z</time>
      </trkpt>
      <trkpt lat="48.8614" lon="2.19482">
        <ele>83.6</ele>
        <time>2023-08-20T02:17:38Z</time>
      </trkpt>
      <trkpt lat="48.86134" lon="2.19478">
        <ele>83.4</ele>
        <time>2023-08-20T02:17:40Z</time>
      </trkpt>
      <trkpt lat="48.86113" lon="2.19467">
        <ele>83.6</ele>
        <time>2023-08-20T02:17:46Z</time>
      </trkpt>
      <trkpt lat="48.86109" lon="2.19458">
        <ele>83.6</ele>
        <time>2023-08-20T02:17:48Z</time>
      </trkpt>
      <trkpt lat="48.86109" lon="2.19453">
        <ele>83.6</ele>
        <time>2023-08-20T02:17:49Z</time>
      </trkpt>
      <trkpt lat="48.86113" lon="2.19421">
        <ele>83.4</ele>
        <time>2023-08-20T02:17:55Z</time>
      </trkpt>
      <trkpt lat="48.86119" lon="2.19386">
        <ele>83.2</ele>
        <time>2023-08-20T02:18:01Z</time>
      </trkpt>
      <trkpt lat="48.86131" lon="2.19348">
        <ele>83</ele>
        <time>2023-08-20T02:18:07Z</time>
      </trkpt>
      <trkpt lat="48.86139" lon="2.19328">
        <ele>83.2</ele>
        <time>2023-08-20T02:18:11Z</time>
      </trkpt>
      <trkpt lat="48.8614" lon="2.19322">
        <ele>83.2</ele>
        <time>2023-08-20T02:18:12Z</time>
      </trkpt>
      <trkpt lat="48.86142" lon="2.19301">
        <ele>83.6</ele>
        <time>2023-08-20T02:18:15Z</time>
      </trkpt>
      <trkpt lat="48.86143" lon="2.19295">
        <ele>83.6</ele>
        <time>2023-08-20T02:18:16Z</time>
      </trkpt>
      <trkpt lat="48.86149" lon="2.19266">
        <ele>83.8</ele>
        <time>2023-08-20T02:18:21Z</time>
      </trkpt>
      <trkpt lat="48.8615" lon="2.1926">
        <ele>83.8</ele>
        <time>2023-08-20T02:18:22Z</time>
      </trkpt>
      <trkpt lat="48.86154" lon="2.19242">
        <ele>84</ele>
        <time>2023-08-20T02:18:25Z</time>
      </trkpt>
      <trkpt lat="48.86155" lon="2.19236">
        <ele>84</ele>
        <time>2023-08-20T02:18:26Z</time>
      </trkpt>
      <trkpt lat="48.86166" lon="2.192">
        <ele>84</ele>
        <time>2023-08-20T02:18:32Z</time>
      </trkpt>
      <trkpt lat="48.86178" lon="2.19154">
        <ele>84.4</ele>
        <time>2023-08-20T02:18:39Z</time>
      </trkpt>
      <trkpt lat="48.86187" lon="2.19113">
        <ele>85</ele>
        <time>2023-08-20T02:18:46Z</time>
      </trkpt>
      <trkpt lat="48.86192" lon="2.19081">
        <ele>85.2</ele>
        <time>2023-08-20T02:18:52Z</time>
      </trkpt>
      <trkpt lat="48.86191" lon="2.19067">
        <ele>85.4</ele>
        <time>2023-08-20T02:18:56Z</time>
      </trkpt>
      <trkpt lat="48.86175" lon="2.19063">
        <ele>85.4</ele>
        <time>2023-08-20T02:19:01Z</time>
      </trkpt>
      <trkpt lat="48.86163" lon="2.19061">
        <ele>85.4</ele>
        <time>2023-08-20T02:19:04Z</time>
      </trkpt>
      <trkpt lat="48.86151" lon="2.19059">
        <ele>85.4</ele>
        <time>2023-08-20T02:19:07Z</time>
      </trkpt>
      <trkpt lat="48.8611" lon="2.19052">
        <ele>84.8</ele>
        <time>2023-08-20T02:19:17Z</time>
      </trkpt>
      <trkpt lat="48.86088" lon="2.19049">
        <ele>84.4</ele>
        <time>2023-08-20T02:19:22Z</time>
      </trkpt>
      <trkpt lat="48.86079" lon="2.19049">
        <ele>84.2</ele>
        <time>2023-08-20T02:19:24Z</time>
      </trkpt>
      <trkpt lat="48.86047" lon="2.19045">
        <ele>84.2</ele>
        <time>2023-08-20T02:19:31Z</time>
      </trkpt>
      <trkpt lat="48.86017" lon="2.19038">
        <ele>83.6</ele>
        <time>2023-08-20T02:19:38Z</time>
      </trkpt>
      <trkpt lat="48.85985" lon="2.19031">
        <ele>84.4</ele>
        <time>2023-08-20T02:19:45Z</time>
      </trkpt>
      <trkpt lat="48.85961" lon="2.19013">
        <ele>84</ele>
        <time>2023-08-20T02:19:52Z</time>
      </trkpt>
      <trkpt lat="48.85941" lon="2.18997">
        <ele>83.6</ele>
        <time>2023-08-20T02:19:58Z</time>
      </trkpt>
      <trkpt lat="48.85915" lon="2.18983">
        <ele>83.6</ele>
        <time>2023-08-20T02:20:05Z</time>
      </trkpt>
      <trkpt lat="48.85902" lon="2.18969">
        <ele>84.2</ele>
        <time>2023-08-20T02:20:09Z</time>
      </trkpt>
      <trkpt lat="48.85886" lon="2.18956">
        <ele>85</ele>
        <time>2023-08-20T02:20:14Z</time>
      </trkpt>
      <trkpt lat="48.85872" lon="2.18953">
        <ele>85.4</ele>
        <time>2023-08-20T02:20:19Z</time>
      </trkpt>
      <trkpt lat="48.85865" lon="2.18954">
        <ele>85.8</ele>
        <time>2023-08-20T02:20:24Z</time>
      </trkpt>
      <trkpt lat="48.85864" lon="2.18948">
        <ele>92.2</ele>
        <time>2023-08-20T02:22:39Z</time>
      </trkpt>
      <trkpt lat="48.85864" lon="2.1894">
        <ele>92.6</ele>
        <time>2023-08-20T02:22:41Z</time>
      </trkpt>
      <trkpt lat="48.85865" lon="2.18915">
        <ele>93.4</ele>
        <time>2023-08-20T02:22:46Z</time>
      </trkpt>
      <trkpt lat="48.85863" lon="2.18881">
        <ele>94.4</ele>
        <time>2023-08-20T02:22:52Z</time>
      </trkpt>
      <trkpt lat="48.85861" lon="2.1885">
        <ele>95</ele>
        <time>2023-08-20T02:22:57Z</time>
      </trkpt>
      <trkpt lat="48.8586" lon="2.18843">
        <ele>95.2</ele>
        <time>2023-08-20T02:22:58Z</time>
      </trkpt>
      <trkpt lat="48.85861" lon="2.18806">
        <ele>95.8</ele>
        <time>2023-08-20T02:23:03Z</time>
      </trkpt>
      <trkpt lat="48.85862" lon="2.18798">
        <ele>95.8</ele>
        <time>2023-08-20T02:23:04Z</time>
      </trkpt>
      <trkpt lat="48.85863" lon="2.1879">
        <ele>96</ele>
        <time>2023-08-20T02:23:05Z</time>
      </trkpt>
      <trkpt lat="48.85866" lon="2.18773">
        <ele>96</ele>
        <time>2023-08-20T02:23:07Z</time>
      </trkpt>
      <trkpt lat="48.85868" lon="2.18766">
        <ele>96.2</ele>
        <time>2023-08-20T02:23:08Z</time>
      </trkpt>
      <trkpt lat="48.8587" lon="2.18751">
        <ele>96.4</ele>
        <time>2023-08-20T02:23:10Z</time>
      </trkpt>
      <trkpt lat="48.85875" lon="2.18715">
        <ele>96.8</ele>
        <time>2023-08-20T02:23:14Z</time>
      </trkpt>
      <trkpt lat="48.85877" lon="2.18697">
        <ele>97.2</ele>
        <time>2023-08-20T02:23:16Z</time>
      </trkpt>
      <trkpt lat="48.85882" lon="2.1867">
        <ele>97.6</ele>
        <time>2023-08-20T02:23:19Z</time>
      </trkpt>
      <trkpt lat="48.8589" lon="2.18606">
        <ele>98.4</ele>
        <time>2023-08-20T02:23:26Z</time>
      </trkpt>
      <trkpt lat="48.85897" lon="2.18563">
        <ele>99</ele>
        <time>2023-08-20T02:23:31Z</time>
      </trkpt>
      <trkpt lat="48.85899" lon="2.18555">
        <ele>99.2</ele>
        <time>2023-08-20T02:23:32Z</time>
      </trkpt>
      <trkpt lat="48.85902" lon="2.18539">
        <ele>99.4</ele>
        <time>2023-08-20T02:23:34Z</time>
      </trkpt>
      <trkpt lat="48.85906" lon="2.1851">
        <ele>100</ele>
        <time>2023-08-20T02:23:38Z</time>
      </trkpt>
      <trkpt lat="48.85914" lon="2.18464">
        <ele>101</ele>
        <time>2023-08-20T02:23:44Z</time>
      </trkpt>
      <trkpt lat="48.85926" lon="2.18403">
        <ele>102</ele>
        <time>2023-08-20T02:23:52Z</time>
      </trkpt>
      <trkpt lat="48.85935" lon="2.18362">
        <ele>102.4</ele>
        <time>2023-08-20T02:23:58Z</time>
      </trkpt>
      <trkpt lat="48.85943" lon="2.18328">
        <ele>102.8</ele>
        <time>2023-08-20T02:24:04Z</time>
      </trkpt>
      <trkpt lat="48.85944" lon="2.18316">
        <ele>102.8</ele>
        <time>2023-08-20T02:24:06Z</time>
      </trkpt>
      <trkpt lat="48.85944" lon="2.1831">
        <ele>102.8</ele>
        <time>2023-08-20T02:24:07Z</time>
      </trkpt>
      <trkpt lat="48.85944" lon="2.18286">
        <ele>103.2</ele>
        <time>2023-08-20T02:24:11Z</time>
      </trkpt>
      <trkpt lat="48.85948" lon="2.18242">
        <ele>103.4</ele>
        <time>2023-08-20T02:24:16Z</time>
      </trkpt>
      <trkpt lat="48.85949" lon="2.18233">
        <ele>103.4</ele>
        <time>2023-08-20T02:24:17Z</time>
      </trkpt>
      <trkpt lat="48.85954" lon="2.18204">
        <ele>103.2</ele>
        <time>2023-08-20T02:24:20Z</time>
      </trkpt>
      <trkpt lat="48.85962" lon="2.18161">
        <ele>103.2</ele>
        <time>2023-08-20T02:24:25Z</time>
      </trkpt>
      <trkpt lat="48.85965" lon="2.18138">
        <ele>103.2</ele>
        <time>2023-08-20T02:24:28Z</time>
      </trkpt>
      <trkpt lat="48.85978" lon="2.18087">
        <ele>103.4</ele>
        <time>2023-08-20T02:24:35Z</time>
      </trkpt>
      <trkpt lat="48.85981" lon="2.18073">
        <ele>103.4</ele>
        <time>2023-08-20T02:24:37Z</time>
      </trkpt>
      <trkpt lat="48.85984" lon="2.1805">
        <ele>103.6</ele>
        <time>2023-08-20T02:24:40Z</time>
      </trkpt>
      <trkpt lat="48.85994" lon="2.17997">
        <ele>104.2</ele>
        <time>2023-08-20T02:24:47Z</time>
      </trkpt>
      <trkpt lat="48.85996" lon="2.1799">
        <ele>104.2</ele>
        <time>2023-08-20T02:24:48Z</time>
      </trkpt>
      <trkpt lat="48.86001" lon="2.1796">
        <ele>104.6</ele>
        <time>2023-08-20T02:24:52Z</time>
      </trkpt>
      <trkpt lat="48.8601" lon="2.17905">
        <ele>105.2</ele>
        <time>2023-08-20T02:24:59Z</time>
      </trkpt>
      <trkpt lat="48.86025" lon="2.17833">
        <ele>106.2</ele>
        <time>2023-08-20T02:25:08Z</time>
      </trkpt>
      <trkpt lat="48.86041" lon="2.17753">
        <ele>107.4</ele>
        <time>2023-08-20T02:25:18Z</time>
      </trkpt>
      <trkpt lat="48.86054" lon="2.17689">
        <ele>108.4</ele>
        <time>2023-08-20T02:25:26Z</time>
      </trkpt>
      <trkpt lat="48.86065" lon="2.17632">
        <ele>109</ele>
        <time>2023-08-20T02:25:33Z</time>
      </trkpt>
      <trkpt lat="48.86066" lon="2.17623">
        <ele>109</ele>
        <time>2023-08-20T02:25:34Z</time>
      </trkpt>
      <trkpt lat="48.86082" lon="2.17555">
        <ele>109.8</ele>
        <time>2023-08-20T02:25:42Z</time>
      </trkpt>
      <trkpt lat="48.86097" lon="2.17485">
        <ele>110.6</ele>
        <time>2023-08-20T02:25:50Z</time>
      </trkpt>
      <trkpt lat="48.86117" lon="2.17435">
        <ele>110.8</ele>
        <time>2023-08-20T02:25:56Z</time>
      </trkpt>
      <trkpt lat="48.86144" lon="2.17372">
        <ele>110.8</ele>
        <time>2023-08-20T02:26:04Z</time>
      </trkpt>
      <trkpt lat="48.86167" lon="2.17314">
        <ele>111</ele>
        <time>2023-08-20T02:26:11Z</time>
      </trkpt>
      <trkpt lat="48.8619" lon="2.17257">
        <ele>111</ele>
        <time>2023-08-20T02:26:18Z</time>
      </trkpt>
      <trkpt lat="48.86217" lon="2.17193">
        <ele>111.2</ele>
        <time>2023-08-20T02:26:26Z</time>
      </trkpt>
      <trkpt lat="48.86239" lon="2.17128">
        <ele>111</ele>
        <time>2023-08-20T02:26:34Z</time>
      </trkpt>
      <trkpt lat="48.86242" lon="2.17121">
        <ele>111.2</ele>
        <time>2023-08-20T02:26:35Z</time>
      </trkpt>
      <trkpt lat="48.8625" lon="2.17102">
        <ele>110.8</ele>
        <time>2023-08-20T02:26:38Z</time>
      </trkpt>
      <trkpt lat="48.86246" lon="2.17092">
        <ele>110.8</ele>
        <time>2023-08-20T02:26:40Z</time>
      </trkpt>
      <trkpt lat="48.86239" lon="2.17094">
        <ele>110.6</ele>
        <time>2023-08-20T02:26:42Z</time>
      </trkpt>
      <trkpt lat="48.86235" lon="2.17097">
        <ele>110.4</ele>
        <time>2023-08-20T02:26:43Z</time>
      </trkpt>
      <trkpt lat="48.86221" lon="2.17104">
        <ele>110.4</ele>
        <time>2023-08-20T02:26:47Z</time>
      </trkpt>
      <trkpt lat="48.86191" lon="2.17115">
        <ele>110.2</ele>
        <time>2023-08-20T02:26:55Z</time>
      </trkpt>
      <trkpt lat="48.86172" lon="2.17117">
        <ele>110</ele>
        <time>2023-08-20T02:27:00Z</time>
      </trkpt>
      <trkpt lat="48.8615" lon="2.17115">
        <ele>109.8</ele>
        <time>2023-08-20T02:27:06Z</time>
      </trkpt>
      <trkpt lat="48.86136" lon="2.17104">
        <ele>109.8</ele>
        <time>2023-08-20T02:27:12Z</time>
      </trkpt>
      <trkpt lat="48.86122" lon="2.17084">
        <ele>109.8</ele>
        <time>2023-08-20T02:27:19Z</time>
      </trkpt>
      <trkpt lat="48.86112" lon="2.17064">
        <ele>109.8</ele>
        <time>2023-08-20T02:27:25Z</time>
      </trkpt>
      <trkpt lat="48.86098" lon="2.17035">
        <ele>110</ele>
        <time>2023-08-20T02:27:32Z</time>
      </trkpt>
      <trkpt lat="48.86091" lon="2.17014">
        <ele>110</ele>
        <time>2023-08-20T02:27:37Z</time>
      </trkpt>
      <trkpt lat="48.86078" lon="2.1698">
        <ele>111.2</ele>
        <time>2023-08-20T02:27:44Z</time>
      </trkpt>
      <trkpt lat="48.86071" lon="2.16956">
        <ele>112</ele>
        <time>2023-08-20T02:27:49Z</time>
      </trkpt>
      <trkpt lat="48.86069" lon="2.16934">
        <ele>112.4</ele>
        <time>2023-08-20T02:27:54Z</time>
      </trkpt>
      <trkpt lat="48.86065" lon="2.16901">
        <ele>113.2</ele>
        <time>2023-08-20T02:28:01Z</time>
      </trkpt>
      <trkpt lat="48.86062" lon="2.16877">
        <ele>114</ele>
        <time>2023-08-20T02:28:06Z</time>
      </trkpt>
      <trkpt lat="48.8606" lon="2.16847">
        <ele>115.2</ele>
        <time>2023-08-20T02:28:12Z</time>
      </trkpt>
      <trkpt lat="48.86052" lon="2.16813">
        <ele>116.2</ele>
        <time>2023-08-20T02:28:19Z</time>
      </trkpt>
      <trkpt lat="48.86041" lon="2.16788">
        <ele>116.4</ele>
        <time>2023-08-20T02:28:24Z</time>
      </trkpt>
      <trkpt lat="48.86032" lon="2.16774">
        <ele>116.8</ele>
        <time>2023-08-20T02:28:27Z</time>
      </trkpt>
      <trkpt lat="48.86028" lon="2.1677">
        <ele>116.8</ele>
        <time>2023-08-20T02:28:28Z</time>
      </trkpt>
      <trkpt lat="48.86019" lon="2.16765">
        <ele>117</ele>
        <time>2023-08-20T02:28:30Z</time>
      </trkpt>
      <trkpt lat="48.86009" lon="2.1676">
        <ele>117</ele>
        <time>2023-08-20T02:28:32Z</time>
      </trkpt>
      <trkpt lat="48.86001" lon="2.16758">
        <ele>116.8</ele>
        <time>2023-08-20T02:28:34Z</time>
      </trkpt>
      <trkpt lat="48.85991" lon="2.16758">
        <ele>116.6</ele>
        <time>2023-08-20T02:28:36Z</time>
      </trkpt>
      <trkpt lat="48.85986" lon="2.16758">
        <ele>116.6</ele>
        <time>2023-08-20T02:28:37Z</time>
      </trkpt>
      <trkpt lat="48.85976" lon="2.16761">
        <ele>116.4</ele>
        <time>2023-08-20T02:28:39Z</time>
      </trkpt>
      <trkpt lat="48.85967" lon="2.16764">
        <ele>116.4</ele>
        <time>2023-08-20T02:28:41Z</time>
      </trkpt>
      <trkpt lat="48.85958" lon="2.16768">
        <ele>115.8</ele>
        <time>2023-08-20T02:28:43Z</time>
      </trkpt>
      <trkpt lat="48.85933" lon="2.16775">
        <ele>114.4</ele>
        <time>2023-08-20T02:28:48Z</time>
      </trkpt>
      <trkpt lat="48.85919" lon="2.16776">
        <ele>113.6</ele>
        <time>2023-08-20T02:28:51Z</time>
      </trkpt>
      <trkpt lat="48.85908" lon="2.16776">
        <ele>113</ele>
        <time>2023-08-20T02:28:53Z</time>
      </trkpt>
      <trkpt lat="48.85884" lon="2.16775">
        <ele>111.2</ele>
        <time>2023-08-20T02:28:58Z</time>
      </trkpt>
      <trkpt lat="48.85864" lon="2.16774">
        <ele>109.8</ele>
        <time>2023-08-20T02:29:02Z</time>
      </trkpt>
      <trkpt lat="48.85858" lon="2.16773">
        <ele>109.2</ele>
        <time>2023-08-20T02:29:03Z</time>
      </trkpt>
      <trkpt lat="48.8584" lon="2.16769">
        <ele>107.8</ele>
        <time>2023-08-20T02:29:06Z</time>
      </trkpt>
      <trkpt lat="48.85815" lon="2.16764">
        <ele>105</ele>
        <time>2023-08-20T02:29:11Z</time>
      </trkpt>
      <trkpt lat="48.85786" lon="2.16766">
        <ele>102.2</ele>
        <time>2023-08-20T02:29:16Z</time>
      </trkpt>
      <trkpt lat="48.85762" lon="2.16774">
        <ele>98.2</ele>
        <time>2023-08-20T02:29:22Z</time>
      </trkpt>
      <trkpt lat="48.85749" lon="2.16786">
        <ele>95.6</ele>
        <time>2023-08-20T02:29:26Z</time>
      </trkpt>
      <trkpt lat="48.85745" lon="2.16792">
        <ele>94.8</ele>
        <time>2023-08-20T02:29:27Z</time>
      </trkpt>
      <trkpt lat="48.85726" lon="2.16821">
        <ele>91.2</ele>
        <time>2023-08-20T02:29:32Z</time>
      </trkpt>
      <trkpt lat="48.8571" lon="2.16833">
        <ele>89</ele>
        <time>2023-08-20T02:29:35Z</time>
      </trkpt>
      <trkpt lat="48.85703" lon="2.16836">
        <ele>88.2</ele>
        <time>2023-08-20T02:29:36Z</time>
      </trkpt>
      <trkpt lat="48.85691" lon="2.16839">
        <ele>86.4</ele>
        <time>2023-08-20T02:29:38Z</time>
      </trkpt>
      <trkpt lat="48.8568" lon="2.1684">
        <ele>84.6</ele>
        <time>2023-08-20T02:29:40Z</time>
      </trkpt>
      <trkpt lat="48.85659" lon="2.16839">
        <ele>82.4</ele>
        <time>2023-08-20T02:29:44Z</time>
      </trkpt>
      <trkpt lat="48.85654" lon="2.16836">
        <ele>81.8</ele>
        <time>2023-08-20T02:29:45Z</time>
      </trkpt>
      <trkpt lat="48.85636" lon="2.16827">
        <ele>80.4</ele>
        <time>2023-08-20T02:29:48Z</time>
      </trkpt>
      <trkpt lat="48.85623" lon="2.16814">
        <ele>79.4</ele>
        <time>2023-08-20T02:29:50Z</time>
      </trkpt>
      <trkpt lat="48.8561" lon="2.16797">
        <ele>78.4</ele>
        <time>2023-08-20T02:29:52Z</time>
      </trkpt>
      <trkpt lat="48.85594" lon="2.16774">
        <ele>77.6</ele>
        <time>2023-08-20T02:29:55Z</time>
      </trkpt>
      <trkpt lat="48.85587" lon="2.16757">
        <ele>77.2</ele>
        <time>2023-08-20T02:29:57Z</time>
      </trkpt>
      <trkpt lat="48.85581" lon="2.16742">
        <ele>77.2</ele>
        <time>2023-08-20T02:29:59Z</time>
      </trkpt>
      <trkpt lat="48.85574" lon="2.16715">
        <ele>77</ele>
        <time>2023-08-20T02:30:03Z</time>
      </trkpt>
      <trkpt lat="48.85561" lon="2.16673">
        <ele>78</ele>
        <time>2023-08-20T02:30:09Z</time>
      </trkpt>
      <trkpt lat="48.85553" lon="2.16653">
        <ele>74.8</ele>
        <time>2023-08-20T02:30:12Z</time>
      </trkpt>
      <trkpt lat="48.85545" lon="2.16633">
        <ele>79.4</ele>
        <time>2023-08-20T02:30:15Z</time>
      </trkpt>
      <trkpt lat="48.85527" lon="2.16601">
        <ele>80.2</ele>
        <time>2023-08-20T02:30:21Z</time>
      </trkpt>
      <trkpt lat="48.85516" lon="2.16589">
        <ele>80.6</ele>
        <time>2023-08-20T02:30:24Z</time>
      </trkpt>
      <trkpt lat="48.85505" lon="2.16579">
        <ele>81.2</ele>
        <time>2023-08-20T02:30:27Z</time>
      </trkpt>
      <trkpt lat="48.85501" lon="2.16577">
        <ele>81.2</ele>
        <time>2023-08-20T02:30:28Z</time>
      </trkpt>
      <trkpt lat="48.85487" lon="2.16567">
        <ele>82.2</ele>
        <time>2023-08-20T02:30:32Z</time>
      </trkpt>
      <trkpt lat="48.85471" lon="2.16555">
        <ele>83.6</ele>
        <time>2023-08-20T02:30:37Z</time>
      </trkpt>
      <trkpt lat="48.85455" lon="2.16537">
        <ele>85.2</ele>
        <time>2023-08-20T02:30:42Z</time>
      </trkpt>
      <trkpt lat="48.85433" lon="2.1651">
        <ele>87.4</ele>
        <time>2023-08-20T02:30:49Z</time>
      </trkpt>
      <trkpt lat="48.85421" lon="2.16494">
        <ele>88.4</ele>
        <time>2023-08-20T02:30:53Z</time>
      </trkpt>
      <trkpt lat="48.8541" lon="2.1648">
        <ele>89.2</ele>
        <time>2023-08-20T02:30:56Z</time>
      </trkpt>
      <trkpt lat="48.85406" lon="2.16476">
        <ele>89.4</ele>
        <time>2023-08-20T02:30:57Z</time>
      </trkpt>
      <trkpt lat="48.85396" lon="2.16466">
        <ele>89.8</ele>
        <time>2023-08-20T02:30:59Z</time>
      </trkpt>
      <trkpt lat="48.85386" lon="2.16457">
        <ele>90.4</ele>
        <time>2023-08-20T02:31:01Z</time>
      </trkpt>
      <trkpt lat="48.85382" lon="2.16452">
        <ele>90.4</ele>
        <time>2023-08-20T02:31:02Z</time>
      </trkpt>
      <trkpt lat="48.85371" lon="2.16444">
        <ele>90.8</ele>
        <time>2023-08-20T02:31:05Z</time>
      </trkpt>
      <trkpt lat="48.85356" lon="2.16434">
        <ele>91.4</ele>
        <time>2023-08-20T02:31:09Z</time>
      </trkpt>
      <trkpt lat="48.85337" lon="2.16425">
        <ele>91.6</ele>
        <time>2023-08-20T02:31:13Z</time>
      </trkpt>
      <trkpt lat="48.8532" lon="2.16418">
        <ele>92.2</ele>
        <time>2023-08-20T02:31:16Z</time>
      </trkpt>
      <trkpt lat="48.85303" lon="2.1641">
        <ele>92.6</ele>
        <time>2023-08-20T02:31:19Z</time>
      </trkpt>
      <trkpt lat="48.85272" lon="2.16393">
        <ele>93.6</ele>
        <time>2023-08-20T02:31:24Z</time>
      </trkpt>
      <trkpt lat="48.85254" lon="2.16388">
        <ele>94.2</ele>
        <time>2023-08-20T02:31:28Z</time>
      </trkpt>
      <trkpt lat="48.85238" lon="2.16383">
        <ele>94.4</ele>
        <time>2023-08-20T02:31:33Z</time>
      </trkpt>
      <trkpt lat="48.85232" lon="2.16379">
        <ele>94.4</ele>
        <time>2023-08-20T02:31:36Z</time>
      </trkpt>
      <trkpt lat="48.85227" lon="2.16377">
        <ele>94.4</ele>
        <time>2023-08-20T02:31:38Z</time>
      </trkpt>
      <trkpt lat="48.85224" lon="2.16377">
        <ele>94.4</ele>
        <time>2023-08-20T02:31:39Z</time>
      </trkpt>
      <trkpt lat="48.85222" lon="2.16382">
        <ele>95</ele>
        <time>2023-08-20T02:31:44Z</time>
      </trkpt>
      <trkpt lat="48.85224" lon="2.16383">
        <ele>95</ele>
        <time>2023-08-20T02:31:45Z</time>
      </trkpt>
      <trkpt lat="48.85228" lon="2.16386">
        <ele>95</ele>
        <time>2023-08-20T02:31:48Z</time>
      </trkpt>
      <trkpt lat="48.8524" lon="2.16389">
        <ele>95</ele>
        <time>2023-08-20T02:31:53Z</time>
      </trkpt>
      <trkpt lat="48.85243" lon="2.16389">
        <ele>95</ele>
        <time>2023-08-20T02:31:54Z</time>
      </trkpt>
      <trkpt lat="48.85249" lon="2.16384">
        <ele>94.8</ele>
        <time>2023-08-20T02:31:56Z</time>
      </trkpt>
      <trkpt lat="48.85251" lon="2.16381">
        <ele>95.4</ele>
        <time>2023-08-20T02:31:57Z</time>
      </trkpt>
      <trkpt lat="48.85254" lon="2.16374">
        <ele>94.6</ele>
        <time>2023-08-20T02:31:59Z</time>
      </trkpt>
      <trkpt lat="48.85251" lon="2.16361">
        <ele>95</ele>
        <time>2023-08-20T02:32:03Z</time>
      </trkpt>
      <trkpt lat="48.85241" lon="2.16339">
        <ele>95.4</ele>
        <time>2023-08-20T02:32:08Z</time>
      </trkpt>
      <trkpt lat="48.85229" lon="2.16315">
        <ele>95.8</ele>
        <time>2023-08-20T02:32:13Z</time>
      </trkpt>
      <trkpt lat="48.85219" lon="2.16286">
        <ele>96</ele>
        <time>2023-08-20T02:32:19Z</time>
      </trkpt>
      <trkpt lat="48.85209" lon="2.16264">
        <ele>96.6</ele>
        <time>2023-08-20T02:32:25Z</time>
      </trkpt>
      <trkpt lat="48.85205" lon="2.16243">
        <ele>98</ele>
        <time>2023-08-20T02:32:29Z</time>
      </trkpt>
      <trkpt lat="48.85206" lon="2.16239">
        <ele>98.2</ele>
        <time>2023-08-20T02:32:30Z</time>
      </trkpt>
      <trkpt lat="48.85213" lon="2.16215">
        <ele>99.2</ele>
        <time>2023-08-20T02:32:35Z</time>
      </trkpt>
      <trkpt lat="48.85222" lon="2.16189">
        <ele>100.4</ele>
        <time>2023-08-20T02:32:41Z</time>
      </trkpt>
      <trkpt lat="48.85222" lon="2.16185">
        <ele>100.8</ele>
        <time>2023-08-20T02:32:43Z</time>
      </trkpt>
      <trkpt lat="48.85219" lon="2.16185">
        <ele>106.2</ele>
        <time>2023-08-20T02:33:22Z</time>
      </trkpt>
      <trkpt lat="48.85218" lon="2.16187">
        <ele>106.4</ele>
        <time>2023-08-20T02:33:23Z</time>
      </trkpt>
      <trkpt lat="48.85212" lon="2.16198">
        <ele>107.4</ele>
        <time>2023-08-20T02:33:27Z</time>
      </trkpt>
      <trkpt lat="48.85203" lon="2.16215">
        <ele>109.2</ele>
        <time>2023-08-20T02:33:32Z</time>
      </trkpt>
      <trkpt lat="48.85201" lon="2.16233">
        <ele>110.4</ele>
        <time>2023-08-20T02:33:37Z</time>
      </trkpt>
      <trkpt lat="48.85199" lon="2.16241">
        <ele>111.4</ele>
        <time>2023-08-20T02:33:41Z</time>
      </trkpt>
      <trkpt lat="48.85199" lon="2.16233">
        <ele>124</ele>
        <time>2023-08-20T02:35:09Z</time>
      </trkpt>
      <trkpt lat="48.85201" lon="2.16221">
        <ele>124.4</ele>
        <time>2023-08-20T02:35:13Z</time>
      </trkpt>
      <trkpt lat="48.85203" lon="2.16218">
        <ele>124.6</ele>
        <time>2023-08-20T02:35:14Z</time>
      </trkpt>
      <trkpt lat="48.8521" lon="2.16198">
        <ele>125.2</ele>
        <time>2023-08-20T02:35:20Z</time>
      </trkpt>
      <trkpt lat="48.85211" lon="2.16193">
        <ele>125.4</ele>
        <time>2023-08-20T02:35:22Z</time>
      </trkpt>
      <trkpt lat="48.85213" lon="2.16186">
        <ele>126</ele>
        <time>2023-08-20T02:35:25Z</time>
      </trkpt>
      <trkpt lat="48.85214" lon="2.16182">
        <ele>126.2</ele>
        <time>2023-08-20T02:35:27Z</time>
      </trkpt>
      <trkpt lat="48.85215" lon="2.16178">
        <ele>126.4</ele>
        <time>2023-08-20T02:35:29Z</time>
      </trkpt>
      <trkpt lat="48.85216" lon="2.16176">
        <ele>126.4</ele>
        <time>2023-08-20T02:35:30Z</time>
      </trkpt>
      <trkpt lat="48.85221" lon="2.16153">
        <ele>127.2</ele>
        <time>2023-08-20T02:35:36Z</time>
      </trkpt>
      <trkpt lat="48.85219" lon="2.16139">
        <ele>128</ele>
        <time>2023-08-20T02:35:40Z</time>
      </trkpt>
      <trkpt lat="48.85218" lon="2.1613">
        <ele>136.4</ele>
        <time>2023-08-20T02:37:31Z</time>
      </trkpt>
      <trkpt lat="48.85218" lon="2.16121">
        <ele>137</ele>
        <time>2023-08-20T02:37:34Z</time>
      </trkpt>
      <trkpt lat="48.85219" lon="2.16118">
        <ele>137</ele>
        <time>2023-08-20T02:37:35Z</time>
      </trkpt>
      <trkpt lat="48.85221" lon="2.16112">
        <ele>137.2</ele>
        <time>2023-08-20T02:37:37Z</time>
      </trkpt>
      <trkpt lat="48.85223" lon="2.1611">
        <ele>137.2</ele>
        <time>2023-08-20T02:37:38Z</time>
      </trkpt>
      <trkpt lat="48.85227" lon="2.16106">
        <ele>137.4</ele>
        <time>2023-08-20T02:37:40Z</time>
      </trkpt>
      <trkpt lat="48.85234" lon="2.16106">
        <ele>137.6</ele>
        <time>2023-08-20T02:37:43Z</time>
      </trkpt>
      <trkpt lat="48.85243" lon="2.1611">
        <ele>137.4</ele>
        <time>2023-08-20T02:37:47Z</time>
      </trkpt>
      <trkpt lat="48.85249" lon="2.16112">
        <ele>137.4</ele>
        <time>2023-08-20T02:37:49Z</time>
      </trkpt>
      <trkpt lat="48.85259" lon="2.16116">
        <ele>137.2</ele>
        <time>2023-08-20T02:37:53Z</time>
      </trkpt>
      <trkpt lat="48.8528" lon="2.16122">
        <ele>136.6</ele>
        <time>2023-08-20T02:37:59Z</time>
      </trkpt>
      <trkpt lat="48.85299" lon="2.16129">
        <ele>135.8</ele>
        <time>2023-08-20T02:38:04Z</time>
      </trkpt>
      <trkpt lat="48.85313" lon="2.16135">
        <ele>135.4</ele>
        <time>2023-08-20T02:38:08Z</time>
      </trkpt>
      <trkpt lat="48.85329" lon="2.16138">
        <ele>135</ele>
        <time>2023-08-20T02:38:13Z</time>
      </trkpt>
      <trkpt lat="48.85335" lon="2.1614">
        <ele>135</ele>
        <time>2023-08-20T02:38:15Z</time>
      </trkpt>
      <trkpt lat="48.85338" lon="2.16139">
        <ele>134.6</ele>
        <time>2023-08-20T02:38:17Z</time>
      </trkpt>
      <trkpt lat="48.85342" lon="2.16136">
        <ele>134</ele>
        <time>2023-08-20T02:38:21Z</time>
      </trkpt>
      <trkpt lat="48.85341" lon="2.16135">
        <ele>133</ele>
        <time>2023-08-20T02:38:27Z</time>
      </trkpt>
      <trkpt lat="48.85338" lon="2.16135">
        <ele>132.6</ele>
        <time>2023-08-20T02:38:29Z</time>
      </trkpt>
      <trkpt lat="48.85336" lon="2.16134">
        <ele>132.4</ele>
        <time>2023-08-20T02:38:30Z</time>
      </trkpt>
      <trkpt lat="48.85333" lon="2.1613">
        <ele>131.6</ele>
        <time>2023-08-20T02:38:34Z</time>
      </trkpt>
      <trkpt lat="48.85333" lon="2.1613">
        <ele>131.6</ele>
        <time>2023-08-20T02:38:35Z</time>
      </trkpt>
      <trkpt lat="48.85331" lon="2.16112">
        <ele>124.2</ele>
        <time>2023-08-20T02:39:20Z</time>
      </trkpt>
      <trkpt lat="48.85326" lon="2.16108">
        <ele>124</ele>
        <time>2023-08-20T02:39:22Z</time>
      </trkpt>
      <trkpt lat="48.8532" lon="2.16101">
        <ele>123.4</ele>
        <time>2023-08-20T02:39:25Z</time>
      </trkpt>
      <trkpt lat="48.85318" lon="2.16095">
        <ele>123.2</ele>
        <time>2023-08-20T02:39:27Z</time>
      </trkpt>
      <trkpt lat="48.8531" lon="2.16082">
        <ele>123</ele>
        <time>2023-08-20T02:39:32Z</time>
      </trkpt>
      <trkpt lat="48.853" lon="2.16065">
        <ele>123.2</ele>
        <time>2023-08-20T02:39:38Z</time>
      </trkpt>
      <trkpt lat="48.85291" lon="2.16054">
        <ele>123.4</ele>
        <time>2023-08-20T02:39:43Z</time>
      </trkpt>
      <trkpt lat="48.85285" lon="2.16046">
        <ele>122.4</ele>
        <time>2023-08-20T02:39:47Z</time>
      </trkpt>
      <trkpt lat="48.85283" lon="2.16044">
        <ele>123.2</ele>
        <time>2023-08-20T02:39:48Z</time>
      </trkpt>
      <trkpt lat="48.85275" lon="2.16034">
        <ele>123.8</ele>
        <time>2023-08-20T02:39:53Z</time>
      </trkpt>
      <trkpt lat="48.85272" lon="2.16033">
        <ele>123.8</ele>
        <time>2023-08-20T02:39:54Z</time>
      </trkpt>
      <trkpt lat="48.8526" lon="2.16019">
        <ele>125</ele>
        <time>2023-08-20T02:40:00Z</time>
      </trkpt>
      <trkpt lat="48.85253" lon="2.16011">
        <ele>125.6</ele>
        <time>2023-08-20T02:40:04Z</time>
      </trkpt>
      <trkpt lat="48.85252" lon="2.16009">
        <ele>125.8</ele>
        <time>2023-08-20T02:40:05Z</time>
      </trkpt>
      <trkpt lat="48.85247" lon="2.16004">
        <ele>126.2</ele>
        <time>2023-08-20T02:40:08Z</time>
      </trkpt>
      <trkpt lat="48.85244" lon="2.15998">
        <ele>126.4</ele>
        <time>2023-08-20T02:40:11Z</time>
      </trkpt>
      <trkpt lat="48.85233" lon="2.15984">
        <ele>127.4</ele>
        <time>2023-08-20T02:40:17Z</time>
      </trkpt>
      <trkpt lat="48.85222" lon="2.15965">
        <ele>128.4</ele>
        <time>2023-08-20T02:40:24Z</time>
      </trkpt>
      <trkpt lat="48.85215" lon="2.15953">
        <ele>129.6</ele>
        <time>2023-08-20T02:40:28Z</time>
      </trkpt>
      <trkpt lat="48.85209" lon="2.15943">
        <ele>130.4</ele>
        <time>2023-08-20T02:40:33Z</time>
      </trkpt>
      <trkpt lat="48.85201" lon="2.15928">
        <ele>131.2</ele>
        <time>2023-08-20T02:40:39Z</time>
      </trkpt>
      <trkpt lat="48.85191" lon="2.15918">
        <ele>131.8</ele>
        <time>2023-08-20T02:40:44Z</time>
      </trkpt>
      <trkpt lat="48.85186" lon="2.15912">
        <ele>132.2</ele>
        <time>2023-08-20T02:40:47Z</time>
      </trkpt>
      <trkpt lat="48.85183" lon="2.15908">
        <ele>132.4</ele>
        <time>2023-08-20T02:40:49Z</time>
      </trkpt>
      <trkpt lat="48.85176" lon="2.15899">
        <ele>133</ele>
        <time>2023-08-20T02:40:54Z</time>
      </trkpt>
      <trkpt lat="48.85167" lon="2.15887">
        <ele>133.6</ele>
        <time>2023-08-20T02:41:00Z</time>
      </trkpt>
      <trkpt lat="48.85157" lon="2.15876">
        <ele>134</ele>
        <time>2023-08-20T02:41:05Z</time>
      </trkpt>
      <trkpt lat="48.85147" lon="2.15865">
        <ele>134.4</ele>
        <time>2023-08-20T02:41:11Z</time>
      </trkpt>
      <trkpt lat="48.85141" lon="2.1586">
        <ele>134.6</ele>
        <time>2023-08-20T02:41:14Z</time>
      </trkpt>
      <trkpt lat="48.85137" lon="2.15856">
        <ele>134.8</ele>
        <time>2023-08-20T02:41:16Z</time>
      </trkpt>
      <trkpt lat="48.85129" lon="2.15844">
        <ele>135.2</ele>
        <time>2023-08-20T02:41:21Z</time>
      </trkpt>
      <trkpt lat="48.8512" lon="2.1583">
        <ele>136</ele>
        <time>2023-08-20T02:41:26Z</time>
      </trkpt>
      <trkpt lat="48.8512" lon="2.15827">
        <ele>136</ele>
        <time>2023-08-20T02:41:27Z</time>
      </trkpt>
      <trkpt lat="48.85119" lon="2.1581">
        <ele>136.6</ele>
        <time>2023-08-20T02:41:32Z</time>
      </trkpt>
      <trkpt lat="48.85125" lon="2.15791">
        <ele>137</ele>
        <time>2023-08-20T02:41:37Z</time>
      </trkpt>
      <trkpt lat="48.85131" lon="2.15766">
        <ele>137.8</ele>
        <time>2023-08-20T02:41:43Z</time>
      </trkpt>
      <trkpt lat="48.85133" lon="2.15729">
        <ele>139</ele>
        <time>2023-08-20T02:41:49Z</time>
      </trkpt>
      <trkpt lat="48.85131" lon="2.15707">
        <ele>141</ele>
        <time>2023-08-20T02:41:54Z</time>
      </trkpt>
      <trkpt lat="48.8513" lon="2.15704">
        <ele>141.4</ele>
        <time>2023-08-20T02:41:55Z</time>
      </trkpt>
      <trkpt lat="48.8513" lon="2.15699">
        <ele>142.6</ele>
        <time>2023-08-20T02:41:58Z</time>
      </trkpt>
      <trkpt lat="48.85134" lon="2.15688">
        <ele>144.8</ele>
        <time>2023-08-20T02:42:06Z</time>
      </trkpt>
      <trkpt lat="48.85132" lon="2.15684">
        <ele>145.2</ele>
        <time>2023-08-20T02:42:08Z</time>
      </trkpt>
      <trkpt lat="48.85125" lon="2.15674">
        <ele>146</ele>
        <time>2023-08-20T02:42:12Z</time>
      </trkpt>
      <trkpt lat="48.85116" lon="2.15658">
        <ele>147</ele>
        <time>2023-08-20T02:42:17Z</time>
      </trkpt>
      <trkpt lat="48.85103" lon="2.15639">
        <ele>148.4</ele>
        <time>2023-08-20T02:42:23Z</time>
      </trkpt>
      <trkpt lat="48.85092" lon="2.15623">
        <ele>149.6</ele>
        <time>2023-08-20T02:42:27Z</time>
      </trkpt>
      <trkpt lat="48.8508" lon="2.15605">
        <ele>150.4</ele>
        <time>2023-08-20T02:42:32Z</time>
      </trkpt>
      <trkpt lat="48.85067" lon="2.15582">
        <ele>151.2</ele>
        <time>2023-08-20T02:42:38Z</time>
      </trkpt>
      <trkpt lat="48.85056" lon="2.15563">
        <ele>152</ele>
        <time>2023-08-20T02:42:43Z</time>
      </trkpt>
      <trkpt lat="48.85043" lon="2.15543">
        <ele>153.2</ele>
        <time>2023-08-20T02:42:49Z</time>
      </trkpt>
      <trkpt lat="48.85031" lon="2.15522">
        <ele>154.4</ele>
        <time>2023-08-20T02:42:55Z</time>
      </trkpt>
      <trkpt lat="48.85018" lon="2.15503">
        <ele>155.4</ele>
        <time>2023-08-20T02:43:01Z</time>
      </trkpt>
      <trkpt lat="48.85007" lon="2.15487">
        <ele>156</ele>
        <time>2023-08-20T02:43:06Z</time>
      </trkpt>
      <trkpt lat="48.84993" lon="2.15465">
        <ele>156.4</ele>
        <time>2023-08-20T02:43:12Z</time>
      </trkpt>
      <trkpt lat="48.84989" lon="2.15459">
        <ele>156.6</ele>
        <time>2023-08-20T02:43:14Z</time>
      </trkpt>
      <trkpt lat="48.84984" lon="2.15452">
        <ele>156.6</ele>
        <time>2023-08-20T02:43:16Z</time>
      </trkpt>
      <trkpt lat="48.84969" lon="2.1543">
        <ele>157.2</ele>
        <time>2023-08-20T02:43:22Z</time>
      </trkpt>
      <trkpt lat="48.84961" lon="2.15414">
        <ele>157.6</ele>
        <time>2023-08-20T02:43:26Z</time>
      </trkpt>
      <trkpt lat="48.84943" lon="2.15391">
        <ele>158</ele>
        <time>2023-08-20T02:43:32Z</time>
      </trkpt>
      <trkpt lat="48.84931" lon="2.15371">
        <ele>158.2</ele>
        <time>2023-08-20T02:43:36Z</time>
      </trkpt>
      <trkpt lat="48.84928" lon="2.15366">
        <ele>158.2</ele>
        <time>2023-08-20T02:43:37Z</time>
      </trkpt>
      <trkpt lat="48.84911" lon="2.1534">
        <ele>158.6</ele>
        <time>2023-08-20T02:43:42Z</time>
      </trkpt>
      <trkpt lat="48.84907" lon="2.15335">
        <ele>158.6</ele>
        <time>2023-08-20T02:43:43Z</time>
      </trkpt>
      <trkpt lat="48.8489" lon="2.15307">
        <ele>159</ele>
        <time>2023-08-20T02:43:49Z</time>
      </trkpt>
      <trkpt lat="48.8488" lon="2.15285">
        <ele>159</ele>
        <time>2023-08-20T02:43:55Z</time>
      </trkpt>
      <trkpt lat="48.84881" lon="2.15284">
        <ele>159.2</ele>
        <time>2023-08-20T02:43:56Z</time>
      </trkpt>
      <trkpt lat="48.84878" lon="2.15285">
        <ele>161.2</ele>
        <time>2023-08-20T02:45:26Z</time>
      </trkpt>
      <trkpt lat="48.84874" lon="2.15284">
        <ele>161.2</ele>
        <time>2023-08-20T02:45:28Z</time>
      </trkpt>
      <trkpt lat="48.84865" lon="2.15274">
        <ele>161.4</ele>
        <time>2023-08-20T02:45:32Z</time>
      </trkpt>
      <trkpt lat="48.84853" lon="2.15257">
        <ele>161.6</ele>
        <time>2023-08-20T02:45:37Z</time>
      </trkpt>
      <trkpt lat="48.84835" lon="2.15223">
        <ele>162</ele>
        <time>2023-08-20T02:45:44Z</time>
      </trkpt>
      <trkpt lat="48.84832" lon="2.15217">
        <ele>161.8</ele>
        <time>2023-08-20T02:45:45Z</time>
      </trkpt>
      <trkpt lat="48.84824" lon="2.15197">
        <ele>162</ele>
        <time>2023-08-20T02:45:49Z</time>
      </trkpt>
      <trkpt lat="48.84818" lon="2.15181">
        <ele>162</ele>
        <time>2023-08-20T02:45:54Z</time>
      </trkpt>
      <trkpt lat="48.84812" lon="2.15168">
        <ele>162.2</ele>
        <time>2023-08-20T02:45:59Z</time>
      </trkpt>
      <trkpt lat="48.84805" lon="2.15145">
        <ele>162.6</ele>
        <time>2023-08-20T02:46:05Z</time>
      </trkpt>
      <trkpt lat="48.84803" lon="2.15128">
        <ele>163</ele>
        <time>2023-08-20T02:46:10Z</time>
      </trkpt>
      <trkpt lat="48.84803" lon="2.1512">
        <ele>163.2</ele>
        <time>2023-08-20T02:46:12Z</time>
      </trkpt>
      <trkpt lat="48.84802" lon="2.1511">
        <ele>163.6</ele>
        <time>2023-08-20T02:46:15Z</time>
      </trkpt>
      <trkpt lat="48.848" lon="2.15099">
        <ele>164</ele>
        <time>2023-08-20T02:46:19Z</time>
      </trkpt>
      <trkpt lat="48.848" lon="2.15099">
        <ele>164</ele>
        <time>2023-08-20T02:46:20Z</time>
      </trkpt>
      <trkpt lat="48.848" lon="2.15095">
        <ele>166.2</ele>
        <time>2023-08-20T02:46:55Z</time>
      </trkpt>
      <trkpt lat="48.848" lon="2.15088">
        <ele>166.4</ele>
        <time>2023-08-20T02:46:57Z</time>
      </trkpt>
      <trkpt lat="48.84796" lon="2.15062">
        <ele>166.8</ele>
        <time>2023-08-20T02:47:01Z</time>
      </trkpt>
      <trkpt lat="48.84786" lon="2.1504">
        <ele>167.2</ele>
        <time>2023-08-20T02:47:06Z</time>
      </trkpt>
      <trkpt lat="48.84778" lon="2.15038">
        <ele>167.4</ele>
        <time>2023-08-20T02:47:08Z</time>
      </trkpt>
      <trkpt lat="48.84769" lon="2.15038">
        <ele>167.4</ele>
        <time>2023-08-20T02:47:10Z</time>
      </trkpt>
      <trkpt lat="48.84731" lon="2.15037">
        <ele>168.4</ele>
        <time>2023-08-20T02:47:18Z</time>
      </trkpt>
      <trkpt lat="48.84702" lon="2.15037">
        <ele>168.8</ele>
        <time>2023-08-20T02:47:25Z</time>
      </trkpt>
      <trkpt lat="48.84693" lon="2.15033">
        <ele>169</ele>
        <time>2023-08-20T02:47:28Z</time>
      </trkpt>
      <trkpt lat="48.84692" lon="2.15032">
        <ele>169.2</ele>
        <time>2023-08-20T02:47:29Z</time>
      </trkpt>
      <trkpt lat="48.84689" lon="2.15029">
        <ele>169.2</ele>
        <time>2023-08-20T02:47:31Z</time>
      </trkpt>
      <trkpt lat="48.84685" lon="2.1503">
        <ele>169.4</ele>
        <time>2023-08-20T02:47:33Z</time>
      </trkpt>
      <trkpt lat="48.8468" lon="2.15037">
        <ele>169.4</ele>
        <time>2023-08-20T02:47:38Z</time>
      </trkpt>
      <trkpt lat="48.84679" lon="2.15038">
        <ele>169.4</ele>
        <time>2023-08-20T02:47:39Z</time>
      </trkpt>
      <trkpt lat="48.84679" lon="2.15041">
        <ele>169.4</ele>
        <time>2023-08-20T02:47:41Z</time>
      </trkpt>
      <trkpt lat="48.84681" lon="2.15044">
        <ele>169.4</ele>
        <time>2023-08-20T02:47:43Z</time>
      </trkpt>
      <trkpt lat="48.84685" lon="2.15052">
        <ele>169.8</ele>
        <time>2023-08-20T02:47:48Z</time>
      </trkpt>
      <trkpt lat="48.84687" lon="2.15053">
        <ele>169.6</ele>
        <time>2023-08-20T02:47:49Z</time>
      </trkpt>
      <trkpt lat="48.84691" lon="2.15048">
        <ele>169.6</ele>
        <time>2023-08-20T02:47:52Z</time>
      </trkpt>
      <trkpt lat="48.84691" lon="2.15043">
        <ele>169.6</ele>
        <time>2023-08-20T02:47:54Z</time>
      </trkpt>
      <trkpt lat="48.84692" lon="2.15034">
        <ele>169.8</ele>
        <time>2023-08-20T02:47:57Z</time>
      </trkpt>
      <trkpt lat="48.8469" lon="2.15029">
        <ele>169.8</ele>
        <time>2023-08-20T02:47:59Z</time>
      </trkpt>
      <trkpt lat="48.84678" lon="2.15016">
        <ele>169.4</ele>
        <time>2023-08-20T02:48:05Z</time>
      </trkpt>
      <trkpt lat="48.84669" lon="2.14994">
        <ele>168.8</ele>
        <time>2023-08-20T02:48:12Z</time>
      </trkpt>
      <trkpt lat="48.84663" lon="2.14976">
        <ele>169.2</ele>
        <time>2023-08-20T02:48:20Z</time>
      </trkpt>
      <trkpt lat="48.84663" lon="2.14976">
        <ele>169.2</ele>
        <time>2023-08-20T02:48:21Z</time>
      </trkpt>
      <trkpt lat="48.84661" lon="2.14973">
        <ele>168.8</ele>
        <time>2023-08-20T02:48:44Z</time>
      </trkpt>
      <trkpt lat="48.84658" lon="2.14967">
        <ele>168.8</ele>
        <time>2023-08-20T02:48:46Z</time>
      </trkpt>
      <trkpt lat="48.84646" lon="2.14939">
        <ele>169.2</ele>
        <time>2023-08-20T02:48:52Z</time>
      </trkpt>
      <trkpt lat="48.84626" lon="2.1489">
        <ele>169.4</ele>
        <time>2023-08-20T02:49:00Z</time>
      </trkpt>
      <trkpt lat="48.84615" lon="2.14865">
        <ele>169.2</ele>
        <time>2023-08-20T02:49:04Z</time>
      </trkpt>
      <trkpt lat="48.8461" lon="2.14852">
        <ele>169.4</ele>
        <time>2023-08-20T02:49:06Z</time>
      </trkpt>
      <trkpt lat="48.84602" lon="2.14833">
        <ele>169.2</ele>
        <time>2023-08-20T02:49:09Z</time>
      </trkpt>
      <trkpt lat="48.846" lon="2.14823">
        <ele>169.2</ele>
        <time>2023-08-20T02:49:11Z</time>
      </trkpt>
      <trkpt lat="48.84596" lon="2.14809">
        <ele>169.2</ele>
        <time>2023-08-20T02:49:15Z</time>
      </trkpt>
      <trkpt lat="48.84585" lon="2.14795">
        <ele>169</ele>
        <time>2023-08-20T02:49:19Z</time>
      </trkpt>
      <trkpt lat="48.84556" lon="2.14776">
        <ele>168.8</ele>
        <time>2023-08-20T02:49:26Z</time>
      </trkpt>
      <trkpt lat="48.84527" lon="2.14753">
        <ele>168.6</ele>
        <time>2023-08-20T02:49:33Z</time>
      </trkpt>
      <trkpt lat="48.84509" lon="2.14739">
        <ele>168.6</ele>
        <time>2023-08-20T02:49:37Z</time>
      </trkpt>
      <trkpt lat="48.84496" lon="2.14729">
        <ele>168.4</ele>
        <time>2023-08-20T02:49:40Z</time>
      </trkpt>
      <trkpt lat="48.84464" lon="2.14706">
        <ele>168</ele>
        <time>2023-08-20T02:49:48Z</time>
      </trkpt>
      <trkpt lat="48.8444" lon="2.14689">
        <ele>167.8</ele>
        <time>2023-08-20T02:49:54Z</time>
      </trkpt>
      <trkpt lat="48.84407" lon="2.14666">
        <ele>168</ele>
        <time>2023-08-20T02:50:01Z</time>
      </trkpt>
      <trkpt lat="48.84367" lon="2.14636">
        <ele>168</ele>
        <time>2023-08-20T02:50:09Z</time>
      </trkpt>
      <trkpt lat="48.84325" lon="2.14606">
        <ele>168</ele>
        <time>2023-08-20T02:50:17Z</time>
      </trkpt>
      <trkpt lat="48.84304" lon="2.1459">
        <ele>168</ele>
        <time>2023-08-20T02:50:21Z</time>
      </trkpt>
      <trkpt lat="48.84293" lon="2.14583">
        <ele>168</ele>
        <time>2023-08-20T02:50:23Z</time>
      </trkpt>
      <trkpt lat="48.84268" lon="2.14569">
        <ele>168.2</ele>
        <time>2023-08-20T02:50:28Z</time>
      </trkpt>
      <trkpt lat="48.84235" lon="2.14563">
        <ele>168</ele>
        <time>2023-08-20T02:50:34Z</time>
      </trkpt>
      <trkpt lat="48.84196" lon="2.14565">
        <ele>167.6</ele>
        <time>2023-08-20T02:50:41Z</time>
      </trkpt>
      <trkpt lat="48.8415" lon="2.14571">
        <ele>167</ele>
        <time>2023-08-20T02:50:49Z</time>
      </trkpt>
      <trkpt lat="48.84099" lon="2.14575">
        <ele>166.2</ele>
        <time>2023-08-20T02:50:58Z</time>
      </trkpt>
      <trkpt lat="48.84057" lon="2.14577">
        <ele>165.4</ele>
        <time>2023-08-20T02:51:05Z</time>
      </trkpt>
      <trkpt lat="48.84044" lon="2.14574">
        <ele>165.2</ele>
        <time>2023-08-20T02:51:07Z</time>
      </trkpt>
      <trkpt lat="48.84025" lon="2.14573">
        <ele>164.8</ele>
        <time>2023-08-20T02:51:10Z</time>
      </trkpt>
      <trkpt lat="48.83986" lon="2.14568">
        <ele>163.8</ele>
        <time>2023-08-20T02:51:16Z</time>
      </trkpt>
      <trkpt lat="48.83953" lon="2.14565">
        <ele>163.4</ele>
        <time>2023-08-20T02:51:21Z</time>
      </trkpt>
      <trkpt lat="48.83947" lon="2.14567">
        <ele>163</ele>
        <time>2023-08-20T02:51:22Z</time>
      </trkpt>
      <trkpt lat="48.83934" lon="2.14573">
        <ele>162.8</ele>
        <time>2023-08-20T02:51:24Z</time>
      </trkpt>
      <trkpt lat="48.83922" lon="2.14583">
        <ele>162.6</ele>
        <time>2023-08-20T02:51:26Z</time>
      </trkpt>
      <trkpt lat="48.83889" lon="2.14609">
        <ele>161.8</ele>
        <time>2023-08-20T02:51:31Z</time>
      </trkpt>
      <trkpt lat="48.83882" lon="2.14613">
        <ele>161.8</ele>
        <time>2023-08-20T02:51:32Z</time>
      </trkpt>
      <trkpt lat="48.83875" lon="2.14615">
        <ele>161.4</ele>
        <time>2023-08-20T02:51:33Z</time>
      </trkpt>
      <trkpt lat="48.83852" lon="2.14618">
        <ele>160.8</ele>
        <time>2023-08-20T02:51:36Z</time>
      </trkpt>
      <trkpt lat="48.83837" lon="2.14617">
        <ele>160.4</ele>
        <time>2023-08-20T02:51:38Z</time>
      </trkpt>
      <trkpt lat="48.83816" lon="2.14613">
        <ele>160.2</ele>
        <time>2023-08-20T02:51:41Z</time>
      </trkpt>
      <trkpt lat="48.83782" lon="2.14606">
        <ele>159.4</ele>
        <time>2023-08-20T02:51:47Z</time>
      </trkpt>
      <trkpt lat="48.83766" lon="2.14601">
        <ele>159.2</ele>
        <time>2023-08-20T02:51:50Z</time>
      </trkpt>
      <trkpt lat="48.83755" lon="2.14598">
        <ele>159.2</ele>
        <time>2023-08-20T02:51:52Z</time>
      </trkpt>
      <trkpt lat="48.83735" lon="2.1459">
        <ele>158.6</ele>
        <time>2023-08-20T02:51:57Z</time>
      </trkpt>
      <trkpt lat="48.83716" lon="2.14581">
        <ele>157.8</ele>
        <time>2023-08-20T02:52:03Z</time>
      </trkpt>
      <trkpt lat="48.83712" lon="2.1458">
        <ele>157.2</ele>
        <time>2023-08-20T02:52:06Z</time>
      </trkpt>
      <trkpt lat="48.83712" lon="2.14576">
        <ele>151.4</ele>
        <time>2023-08-20T02:53:40Z</time>
      </trkpt>
      <trkpt lat="48.8371" lon="2.14576">
        <ele>150.8</ele>
        <time>2023-08-20T02:53:41Z</time>
      </trkpt>
      <trkpt lat="48.83708" lon="2.14576">
        <ele>150.6</ele>
        <time>2023-08-20T02:53:42Z</time>
      </trkpt>
      <trkpt lat="48.83691" lon="2.1458">
        <ele>150.8</ele>
        <time>2023-08-20T02:53:48Z</time>
      </trkpt>
      <trkpt lat="48.83673" lon="2.1458">
        <ele>152.2</ele>
        <time>2023-08-20T02:53:53Z</time>
      </trkpt>
      <trkpt lat="48.83651" lon="2.14581">
        <ele>152.4</ele>
        <time>2023-08-20T02:53:59Z</time>
      </trkpt>
      <trkpt lat="48.83628" lon="2.1458">
        <ele>152.8</ele>
        <time>2023-08-20T02:54:05Z</time>
      </trkpt>
      <trkpt lat="48.83598" lon="2.14584">
        <ele>153.2</ele>
        <time>2023-08-20T02:54:12Z</time>
      </trkpt>
      <trkpt lat="48.83579" lon="2.14579">
        <ele>153.2</ele>
        <time>2023-08-20T02:54:17Z</time>
      </trkpt>
      <trkpt lat="48.83569" lon="2.14583">
        <ele>153.2</ele>
        <time>2023-08-20T02:54:19Z</time>
      </trkpt>
      <trkpt lat="48.8356" lon="2.14589">
        <ele>153.2</ele>
        <time>2023-08-20T02:54:21Z</time>
      </trkpt>
      <trkpt lat="48.83555" lon="2.14593">
        <ele>153.2</ele>
        <time>2023-08-20T02:54:22Z</time>
      </trkpt>
      <trkpt lat="48.8354" lon="2.14603">
        <ele>153.4</ele>
        <time>2023-08-20T02:54:25Z</time>
      </trkpt>
      <trkpt lat="48.83534" lon="2.14605">
        <ele>153.6</ele>
        <time>2023-08-20T02:54:26Z</time>
      </trkpt>
      <trkpt lat="48.83521" lon="2.1461">
        <ele>154.2</ele>
        <time>2023-08-20T02:54:29Z</time>
      </trkpt>
      <trkpt lat="48.83508" lon="2.14615">
        <ele>154.4</ele>
        <time>2023-08-20T02:54:32Z</time>
      </trkpt>
      <trkpt lat="48.83499" lon="2.14618">
        <ele>154.6</ele>
        <time>2023-08-20T02:54:34Z</time>
      </trkpt>
      <trkpt lat="48.83484" lon="2.14624">
        <ele>155</ele>
        <time>2023-08-20T02:54:37Z</time>
      </trkpt>
      <trkpt lat="48.8347" lon="2.1463">
        <ele>155.4</ele>
        <time>2023-08-20T02:54:40Z</time>
      </trkpt>
      <trkpt lat="48.83456" lon="2.14635">
        <ele>155.8</ele>
        <time>2023-08-20T02:54:43Z</time>
      </trkpt>
      <trkpt lat="48.83447" lon="2.14638">
        <ele>156.2</ele>
        <time>2023-08-20T02:54:45Z</time>
      </trkpt>
      <trkpt lat="48.83424" lon="2.14647">
        <ele>156.8</ele>
        <time>2023-08-20T02:54:50Z</time>
      </trkpt>
      <trkpt lat="48.83419" lon="2.14649">
        <ele>157</ele>
        <time>2023-08-20T02:54:51Z</time>
      </trkpt>
      <trkpt lat="48.83402" lon="2.14658">
        <ele>157.6</ele>
        <time>2023-08-20T02:54:55Z</time>
      </trkpt>
      <trkpt lat="48.83377" lon="2.1466">
        <ele>158</ele>
        <time>2023-08-20T02:55:01Z</time>
      </trkpt>
      <trkpt lat="48.83369" lon="2.14657">
        <ele>158.2</ele>
        <time>2023-08-20T02:55:03Z</time>
      </trkpt>
      <trkpt lat="48.83354" lon="2.14647">
        <ele>158.6</ele>
        <time>2023-08-20T02:55:07Z</time>
      </trkpt>
      <trkpt lat="48.8335" lon="2.14644">
        <ele>158.8</ele>
        <time>2023-08-20T02:55:08Z</time>
      </trkpt>
      <trkpt lat="48.83337" lon="2.14633">
        <ele>159.4</ele>
        <time>2023-08-20T02:55:12Z</time>
      </trkpt>
      <trkpt lat="48.83325" lon="2.14617">
        <ele>160</ele>
        <time>2023-08-20T02:55:18Z</time>
      </trkpt>
      <trkpt lat="48.83312" lon="2.14599">
        <ele>160.8</ele>
        <time>2023-08-20T02:55:24Z</time>
      </trkpt>
      <trkpt lat="48.83296" lon="2.14589">
        <ele>161.8</ele>
        <time>2023-08-20T02:55:30Z</time>
      </trkpt>
      <trkpt lat="48.83284" lon="2.14576">
        <ele>162.6</ele>
        <time>2023-08-20T02:55:36Z</time>
      </trkpt>
      <trkpt lat="48.83282" lon="2.14574">
        <ele>163.2</ele>
        <time>2023-08-20T02:55:40Z</time>
      </trkpt>
      <trkpt lat="48.8328" lon="2.14569">
        <ele>163.6</ele>
        <time>2023-08-20T02:55:44Z</time>
      </trkpt>
      <trkpt lat="48.83271" lon="2.14566">
        <ele>164.6</ele>
        <time>2023-08-20T02:55:50Z</time>
      </trkpt>
      <trkpt lat="48.83263" lon="2.14567">
        <ele>165.4</ele>
        <time>2023-08-20T02:55:55Z</time>
      </trkpt>
      <trkpt lat="48.83248" lon="2.14573">
        <ele>166.4</ele>
        <time>2023-08-20T02:56:02Z</time>
      </trkpt>
      <trkpt lat="48.83233" lon="2.14577">
        <ele>167.4</ele>
        <time>2023-08-20T02:56:09Z</time>
      </trkpt>
      <trkpt lat="48.83217" lon="2.14579">
        <ele>168</ele>
        <time>2023-08-20T02:56:14Z</time>
      </trkpt>
      <trkpt lat="48.83189" lon="2.14582">
        <ele>168.8</ele>
        <time>2023-08-20T02:56:21Z</time>
      </trkpt>
      <trkpt lat="48.83162" lon="2.14588">
        <ele>170</ele>
        <time>2023-08-20T02:56:28Z</time>
      </trkpt>
      <trkpt lat="48.83132" lon="2.14595">
        <ele>171.2</ele>
        <time>2023-08-20T02:56:36Z</time>
      </trkpt>
      <trkpt lat="48.83104" lon="2.14603">
        <ele>171.8</ele>
        <time>2023-08-20T02:56:43Z</time>
      </trkpt>
      <trkpt lat="48.83099" lon="2.14604">
        <ele>172</ele>
        <time>2023-08-20T02:56:44Z</time>
      </trkpt>
      <trkpt lat="48.83081" lon="2.14607">
        <ele>172.2</ele>
        <time>2023-08-20T02:56:48Z</time>
      </trkpt>
      <trkpt lat="48.83039" lon="2.14616">
        <ele>172.4</ele>
        <time>2023-08-20T02:56:55Z</time>
      </trkpt>
      <trkpt lat="48.83027" lon="2.14622">
        <ele>172.4</ele>
        <time>2023-08-20T02:56:57Z</time>
      </trkpt>
      <trkpt lat="48.8301" lon="2.14634">
        <ele>172.4</ele>
        <time>2023-08-20T02:57:00Z</time>
      </trkpt>
      <trkpt lat="48.83005" lon="2.1464">
        <ele>172.4</ele>
        <time>2023-08-20T02:57:01Z</time>
      </trkpt>
      <trkpt lat="48.82997" lon="2.14654">
        <ele>172.4</ele>
        <time>2023-08-20T02:57:03Z</time>
      </trkpt>
      <trkpt lat="48.82993" lon="2.1467">
        <ele>172.2</ele>
        <time>2023-08-20T02:57:05Z</time>
      </trkpt>
      <trkpt lat="48.8299" lon="2.14686">
        <ele>172.2</ele>
        <time>2023-08-20T02:57:07Z</time>
      </trkpt>
      <trkpt lat="48.8298" lon="2.1475">
        <ele>171.8</ele>
        <time>2023-08-20T02:57:15Z</time>
      </trkpt>
      <trkpt lat="48.82972" lon="2.148">
        <ele>172</ele>
        <time>2023-08-20T02:57:22Z</time>
      </trkpt>
      <trkpt lat="48.82968" lon="2.14808">
        <ele>172</ele>
        <time>2023-08-20T02:57:24Z</time>
      </trkpt>
      <trkpt lat="48.82965" lon="2.1481">
        <ele>172.2</ele>
        <time>2023-08-20T02:57:25Z</time>
      </trkpt>
      <trkpt lat="48.82951" lon="2.1482">
        <ele>171.8</ele>
        <time>2023-08-20T02:57:30Z</time>
      </trkpt>
      <trkpt lat="48.82938" lon="2.14821">
        <ele>171.8</ele>
        <time>2023-08-20T02:57:34Z</time>
      </trkpt>
      <trkpt lat="48.82918" lon="2.14824">
        <ele>171.4</ele>
        <time>2023-08-20T02:57:40Z</time>
      </trkpt>
      <trkpt lat="48.82902" lon="2.14828">
        <ele>171.2</ele>
        <time>2023-08-20T02:57:46Z</time>
      </trkpt>
      <trkpt lat="48.82901" lon="2.14828">
        <ele>171</ele>
        <time>2023-08-20T02:57:48Z</time>
      </trkpt>
      <trkpt lat="48.82898" lon="2.1483">
        <ele>170.4</ele>
        <time>2023-08-20T02:58:05Z</time>
      </trkpt>
      <trkpt lat="48.82881" lon="2.14835">
        <ele>170</ele>
        <time>2023-08-20T02:58:10Z</time>
      </trkpt>
      <trkpt lat="48.82856" lon="2.14844">
        <ele>169.6</ele>
        <time>2023-08-20T02:58:16Z</time>
      </trkpt>
      <trkpt lat="48.82841" lon="2.14848">
        <ele>169</ele>
        <time>2023-08-20T02:58:20Z</time>
      </trkpt>
      <trkpt lat="48.82829" lon="2.14852">
        <ele>168.6</ele>
        <time>2023-08-20T02:58:24Z</time>
      </trkpt>
      <trkpt lat="48.82814" lon="2.14857">
        <ele>168.2</ele>
        <time>2023-08-20T02:58:28Z</time>
      </trkpt>
      <trkpt lat="48.82794" lon="2.14863">
        <ele>167.6</ele>
        <time>2023-08-20T02:58:33Z</time>
      </trkpt>
      <trkpt lat="48.82773" lon="2.14874">
        <ele>167.2</ele>
        <time>2023-08-20T02:58:38Z</time>
      </trkpt>
      <trkpt lat="48.82767" lon="2.14875">
        <ele>167.2</ele>
        <time>2023-08-20T02:58:39Z</time>
      </trkpt>
    </trkseg>
  </trk>
</gpx>